TS571 / C-GUBC 7700 Squawk Report (19th of October, 2019)

Aircraft A332 Reg No. C-GUBC Age 16 years old
Model A330 Jet engines 2 First flight 17-04-03
Registered 14-07-17 Rollout 04-03 Delivered 29-04-03
Construction No. 518 Line No. N/A Series 243
ADSHEX C07995 Airline name Air Transat Owner N/A
Airfield based Montreal-Dorval~QC~C First tracked 2017-08-23 03:19:00

Flight history for C-GUBC

Time Lat Lon Altitude Heading Speed Vertical Rate
2019-10-19 11:46:46 GMT 49.019493 2.528283 0 239 25 0
2019-10-19 11:46:26 GMT 49.020554 2.531608 0 244 26 0
2019-10-19 11:46:16 GMT 49.021099 2.533440 0 244 27 0
2019-10-19 11:44:50 GMT 49.022720 2.552370 475 266 147 -384
2019-10-19 11:44:42 GMT 49.023834 2.572421 850 266 148 -896
2019-10-19 11:44:31 GMT 49.023834 2.572421 700 265 147 -896
2019-10-19 11:44:20 GMT 49.024475 2.583266 825 266 148 -896
2019-10-19 11:44:16 GMT 49.024673 2.587208 900 267 149 -1024
2019-10-19 11:44:11 GMT 49.024933 2.593759 1,025 267 147 -1024
2019-10-19 11:44:05 GMT 49.025162 2.598407 1,075 266 147 -896
2019-10-19 11:43:59 GMT 49.025513 2.604627 1,175 265 144 -704
2019-10-19 11:43:51 GMT 49.025978 2.612867 1,275 266 145 -768
2019-10-19 11:43:48 GMT 49.026115 2.616047 1,325 266 144 -832
2019-10-19 11:43:43 GMT 49.026398 2.621296 1,375 266 145 -768
2019-10-19 11:43:38 GMT 49.026627 2.625944 1,450 266 144 -832
2019-10-19 11:43:29 GMT 49.027187 2.636646 1,575 266 142 -768
2019-10-19 11:43:21 GMT 49.027512 2.642935 1,650 266 142 -768
2019-10-19 11:43:18 GMT 49.027699 2.646476 1,700 266 142 -832
2019-10-19 11:43:10 GMT 49.028137 2.654043 1,875 266 143 -768
2019-10-19 11:43:06 GMT 49.028351 2.658691 1,850 266 143 -768
2019-10-19 11:42:59 GMT 49.028732 2.665804 1,950 266 143 -768
2019-10-19 11:42:56 GMT 49.028912 2.668810 2,000 266 143 -768
2019-10-19 11:42:49 GMT 49.029282 2.676183 2,100 266 143 -768
2019-10-19 11:42:44 GMT 49.029514 2.680303 2,150 266 143 -768
2019-10-19 11:42:36 GMT 49.029922 2.688059 2,250 266 144 -832
2019-10-19 11:42:31 GMT 49.030197 2.693974 2,325 266 144 -832
2019-10-19 11:42:27 GMT 49.030380 2.697073 2,350 266 145 -832
2019-10-19 11:42:22 GMT 49.030701 2.702778 2,425 266 145 -768
2019-10-19 11:42:17 GMT 49.030956 2.707913 2,500 266 145 -768
2019-10-19 11:42:10 GMT 49.031296 2.714961 2,600 266 145 -832
2019-10-19 11:42:06 GMT 49.031525 2.719257 2,650 266 146 -832
2019-10-19 11:42:00 GMT 49.031845 2.725243 2,725 266 146 -832
2019-10-19 11:41:56 GMT 49.032078 2.729452 2,775 266 146 -832
2019-10-19 11:41:49 GMT 49.032440 2.736511 2,900 266 146 -768
2019-10-19 11:41:45 GMT 49.032635 2.740222 2,925 266 145 -768
2019-10-19 11:41:38 GMT 49.033009 2.747738 3,050 266 145 -832
2019-10-19 11:41:35 GMT 49.033173 2.751019 3,075 266 145 -832
2019-10-19 11:41:31 GMT 49.033424 2.755906 3,150 266 144 -832
2019-10-19 11:41:28 GMT 49.033539 2.758132 3,175 266 143 -832
2019-10-19 11:41:25 GMT 49.033707 2.761327 3,225 266 143 -768
2019-10-19 11:41:20 GMT 49.033951 2.765738 3,275 266 144 -640
2019-10-19 11:41:16 GMT 49.034168 2.770217 3,325 266 147 -640
2019-10-19 11:41:10 GMT 49.034500 2.776372 3,500 266 155 -768
2019-10-19 11:41:04 GMT 49.034870 2.783589 3,475 266 156 -768
2019-10-19 11:40:59 GMT 49.035095 2.787569 3,525 266 159 -832
2019-10-19 11:40:53 GMT 49.035461 2.795246 3,975 266 183 -1536
2019-10-19 11:40:49 GMT 49.035706 2.799779 3,725 266 165 -1280
2019-10-19 11:40:42 GMT 49.036079 2.807585 3,975 266 183 -1536
2019-10-19 11:40:39 GMT 49.036285 2.811725 3,850 266 170 -832
2019-10-19 11:40:29 GMT 49.037018 2.824684 4,025 266 172 -896
2019-10-19 11:40:21 GMT 49.037430 2.833275 4,100 266 180 -704
2019-10-19 11:40:18 GMT 49.037617 2.837075 4,125 266 182 -1152
2019-10-19 11:40:13 GMT 49.037933 2.844050 4,250 266 184 -1536
2019-10-19 11:40:08 GMT 49.038254 2.850459 4,375 266 184 -1152
2019-10-19 11:40:01 GMT 49.038803 2.861023 4,550 265 182 -1280
2019-10-19 11:39:58 GMT 49.039478 2.872563 4,650 265 182 -1344
2019-10-19 11:39:47 GMT 49.039711 2.877262 4,825 267 184 -1344
2019-10-19 11:39:36 GMT 49.040363 2.891645 4,975 266 186 -1088
2019-10-19 11:39:33 GMT 49.040588 2.895602 5,050 265 188 -704
2019-10-19 11:39:28 GMT 49.040966 2.901908 5,125 266 193 -640
2019-10-19 11:39:25 GMT 49.041229 2.906799 5,175 266 197 -320
2019-10-19 11:39:17 GMT 49.041759 2.916581 5,225 266 198 -128
2019-10-19 11:39:13 GMT 49.042038 2.922652 5,225 266 202 64
2019-10-19 11:39:06 GMT 49.042645 2.934362 5,200 266 209 64
2019-10-19 11:39:02 GMT 49.042831 2.938631 5,200 266 220 -64
2019-10-19 11:38:57 GMT 49.043247 2.947010 5,200 266 219 -64
2019-10-19 11:38:54 GMT 49.043480 2.951781 5,200 266 220 -64
2019-10-19 11:38:50 GMT 49.043758 2.956551 5,225 266 220 -64
2019-10-19 11:38:47 GMT 49.043976 2.960886 5,225 266 220 -64
2019-10-19 11:38:43 GMT 49.044365 2.969417 5,225 266 220 0
2019-10-19 11:38:39 GMT 49.044552 2.973247 5,225 266 218 0
2019-10-19 11:38:35 GMT 49.044983 2.982154 5,225 266 218 0
2019-10-19 11:38:32 GMT 49.045158 2.985535 5,225 266 218 0
2019-10-19 11:38:28 GMT 49.045387 2.990594 5,225 266 218 0
2019-10-19 11:38:24 GMT 49.045715 2.997014 5,225 266 218 0
2019-10-19 11:38:19 GMT 49.046181 3.006712 5,225 267 219 0
2019-10-19 11:38:13 GMT 49.046555 3.014446 5,225 267 219 0
2019-10-19 11:38:09 GMT 49.046814 3.019550 5,225 266 220 0
2019-10-19 11:38:06 GMT 49.047089 3.023987 5,225 265 221 64
2019-10-19 11:38:02 GMT 49.047546 3.030255 5,225 263 225 -64
2019-10-19 11:37:58 GMT 49.048416 3.038081 5,250 258 229 -192
2019-10-19 11:37:52 GMT 49.049469 3.045819 5,250 258 230 64
2019-10-19 11:37:47 GMT 49.050476 3.054551 5,225 263 237 192
2019-10-19 11:37:42 GMT 49.050751 3.063495 5,225 276 250 64
2019-10-19 11:37:35 GMT 49.049057 3.075468 5,225 296 272 0
2019-10-19 11:37:31 GMT 49.046879 3.082605 5,225 300 277 0
2019-10-19 11:37:23 GMT 49.040501 3.097060 5,200 306 299 128
2019-10-19 11:37:13 GMT 49.033009 3.113178 5,200 306 308 0
2019-10-19 11:37:10 GMT 49.030884 3.117793 5,225 306 308 0
2019-10-19 11:37:02 GMT 49.021591 3.137794 5,225 306 307 64
2019-10-19 11:36:54 GMT 49.016510 3.148710 5,225 306 307 -64
2019-10-19 11:36:48 GMT 49.012619 3.157231 5,225 306 306 -64
2019-10-19 11:36:43 GMT 49.007950 3.167232 5,225 306 305 0
2019-10-19 11:36:38 GMT 49.004284 3.175121 5,225 306 305 0
2019-10-19 11:36:31 GMT 48.998978 3.186599 5,225 306 305 -64
2019-10-19 11:36:28 GMT 48.996044 3.192902 5,225 306 305 -64
2019-10-19 11:36:21 GMT 48.990177 3.205550 5,225 306 304 0
2019-10-19 11:36:17 GMT 48.986389 3.213783 5,225 306 304 0
2019-10-19 11:36:09 GMT 48.980942 3.225473 5,225 306 304 -64
2019-10-19 11:36:05 GMT 48.977657 3.232655 5,225 306 304 0
2019-10-19 11:35:55 GMT 48.969727 3.249840 5,225 305 305 0
2019-10-19 11:35:45 GMT 48.961029 3.268785 5,225 305 307 0
2019-10-19 11:35:34 GMT 48.952473 3.287297 5,200 306 293 -512
2019-10-19 11:35:24 GMT 48.943348 3.306957 5,250 306 299 -128
2019-10-19 11:35:13 GMT 48.935711 3.323364 5,300 306 290 -448
2019-10-19 11:35:04 GMT 48.928406 3.338904 5,425 306 288 -1152
2019-10-19 11:35:01 GMT 48.926239 3.343576 5,425 306 288 -1152
2019-10-19 11:34:52 GMT 48.919556 3.357802 5,650 306 291 -2112
2019-10-19 11:34:41 GMT 48.910759 3.376561 6,125 306 296 -1664
2019-10-19 11:34:30 GMT 48.902161 3.394916 6,375 306 299 -1344
2019-10-19 11:34:17 GMT 48.891815 3.416959 6,725 306 298 -1984
2019-10-19 11:34:08 GMT 48.883987 3.433439 7,100 306 299 -1152
2019-10-19 11:33:58 GMT 48.876034 3.450068 7,300 306 298 -256
2019-10-19 11:33:49 GMT 48.868538 3.465897 7,300 306 300 -320
2019-10-19 11:33:42 GMT 48.863022 3.477314 7,325 307 302 -1024
2019-10-19 11:33:38 GMT 48.859505 3.484618 7,500 307 308 -1088
2019-10-19 11:33:29 GMT 48.851532 3.501117 7,625 307 314 -1088
2019-10-19 11:33:18 GMT 48.842236 3.520395 7,850 306 316 -1472
2019-10-19 11:33:12 GMT 48.836838 3.531682 8,025 306 316 -896
2019-10-19 11:33:07 GMT 48.833542 3.538724 8,100 306 316 -1216
2019-10-19 11:33:02 GMT 48.828690 3.548945 8,200 306 316 -320
2019-10-19 11:32:56 GMT 48.823940 3.559064 8,225 306 315 0
2019-10-19 11:32:48 GMT 48.817154 3.573233 8,225 306 315 0
2019-10-19 11:32:39 GMT 48.808640 3.590910 8,225 307 310 64
2019-10-19 11:32:34 GMT 48.804840 3.598868 8,225 307 309 128
2019-10-19 11:32:28 GMT 48.799713 3.609431 8,200 307 313 -64
2019-10-19 11:32:24 GMT 48.796288 3.616526 8,200 307 314 -256
2019-10-19 11:32:13 GMT 48.786255 3.637320 8,225 307 313 -64
2019-10-19 11:32:06 GMT 48.781113 3.647895 8,250 307 312 -192
2019-10-19 11:31:57 GMT 48.773346 3.663729 8,250 307 312 -192
2019-10-19 11:31:51 GMT 48.767380 3.675866 8,425 307 313 -1152
2019-10-19 11:31:41 GMT 48.759838 3.691262 8,675 307 315 -2496
2019-10-19 11:31:32 GMT 48.751457 3.708536 9,100 307 315 -2816
2019-10-19 11:31:24 GMT 48.743778 3.724221 9,550 307 312 -2944
2019-10-19 11:31:20 GMT 48.741211 3.729436 9,675 307 314 -1536
2019-10-19 11:31:14 GMT 48.736141 3.739833 9,850 307 316 -1536
2019-10-19 11:31:04 GMT 48.726288 3.759930 10,025 307 323 -384
2019-10-19 11:31:00 GMT 48.723633 3.765353 10,050 307 338 64
2019-10-19 11:30:47 GMT 48.711842 3.789344 10,000 307 341 128
2019-10-19 11:30:37 GMT 48.702534 3.808353 10,000 307 346 64
2019-10-19 11:30:25 GMT 48.691498 3.830848 10,050 307 342 -256
2019-10-19 11:30:19 GMT 48.686237 3.841601 10,050 307 338 64
2019-10-19 11:30:14 GMT 48.681026 3.852154 10,050 307 336 -320
2019-10-19 11:30:06 GMT 48.672737 3.868922 10,150 307 337 -960
2019-10-19 11:29:54 GMT 48.662567 3.889371 10,400 308 342 -1856
2019-10-19 11:29:44 GMT 48.651215 3.911907 10,825 308 354 -1920
2019-10-19 11:29:32 GMT 48.640869 3.932472 11,050 308 368 -704
2019-10-19 11:29:21 GMT 48.628738 3.956627 11,275 308 375 -1984
2019-10-19 11:29:08 GMT 48.615646 3.983037 11,700 308 375 -2112
2019-10-19 11:29:05 GMT 48.611801 3.991910 11,800 306 374 -1920
2019-10-19 11:28:57 GMT 48.605797 4.009865 11,975 293 366 -832
2019-10-19 11:28:46 GMT 48.600769 4.036247 12,025 282 359 -64
2019-10-19 11:28:36 GMT 48.598675 4.062701 12,025 277 356 -64
2019-10-19 11:28:25 GMT 48.597046 4.085758 12,025 277 348 0
2019-10-19 11:28:13 GMT 48.594902 4.115247 12,025 277 349 64
2019-10-19 11:28:10 GMT 48.594177 4.125366 12,050 277 347 0
2019-10-19 11:28:05 GMT 48.593307 4.137198 12,025 277 348 0
2019-10-19 11:27:51 GMT 48.591110 4.167621 12,025 277 349 0
2019-10-19 11:27:37 GMT 48.588573 4.201765 12,050 277 349 64
2019-10-19 11:27:30 GMT 48.587128 4.221637 12,025 277 349 0
2019-10-19 11:27:20 GMT 48.585545 4.243686 12,025 277 350 0
2019-10-19 11:27:07 GMT 48.583328 4.273752 12,025 277 350 0
2019-10-19 11:26:57 GMT 48.581451 4.299669 12,025 277 349 -64
2019-10-19 11:26:47 GMT 48.579636 4.323843 12,025 277 348 128
2019-10-19 11:26:19 GMT 48.574493 4.391785 12,050 277 345 0
2019-10-19 11:26:07 GMT 48.572418 4.419540 13,650 284 369 -3008
2019-10-19 11:25:54 GMT 48.569962 4.451505 12,275 277 348 -1792
2019-10-19 11:25:23 GMT 48.563736 4.528621 13,650 280 362 -2816
2019-10-19 11:25:14 GMT 48.560623 4.551861 14,100 284 369 -3008
2019-10-19 11:25:02 GMT 48.555706 4.577829 15,750 290 372 -4672
2019-10-19 11:24:56 GMT 48.551937 4.594309 15,250 290 372 -4672
2019-10-19 11:24:49 GMT 48.548264 4.610173 15,750 290 370 -4544
2019-10-19 11:24:40 GMT 48.543274 4.631301 16,350 290 371 -3520
2019-10-19 11:24:36 GMT 48.540070 4.644963 16,675 290 371 -3520
2019-10-19 11:24:30 GMT 48.537231 4.656935 16,975 290 374 -3584
2019-10-19 11:24:27 GMT 48.535271 4.665214 17,150 290 374 -3584
2019-10-19 11:24:19 GMT 48.530941 4.683428 17,575 290 377 -3264
2019-10-19 11:24:16 GMT 48.529358 4.690150 17,700 290 378 -3136
2019-10-19 11:24:08 GMT 48.524551 4.710247 18,150 290 381 -3072
2019-10-19 11:24:05 GMT 48.522888 4.717255 18,275 290 383 -2944
2019-10-19 11:24:00 GMT 48.519424 4.731657 18,800 290 389 -3456
2019-10-19 11:23:56 GMT 48.516647 4.743275 19,025 290 389 -4160
2019-10-19 11:23:53 GMT 48.512226 4.761634 19,175 290 383 -5440
2019-10-19 11:23:48 GMT 48.512226 4.761634 19,325 290 386 -5248
2019-10-19 11:23:44 GMT 48.509293 4.774066 19,775 290 384 -5440
2019-10-19 11:23:37 GMT 48.505524 4.789822 21,050 290 381 -5376
2019-10-19 11:23:32 GMT 48.502625 4.801800 21,550 291 379 -4736
2019-10-19 11:23:26 GMT 48.499146 4.816132 21,225 291 379 -4224
2019-10-19 11:23:22 GMT 48.496262 4.827717 21,450 291 378 -4672
2019-10-19 11:23:19 GMT 48.494522 4.834900 21,775 291 381 -4672
2019-10-19 11:23:13 GMT 48.488068 4.860655 22,800 291 380 -4928
2019-10-19 11:23:08 GMT 48.488068 4.860655 22,600 291 381 -4672
2019-10-19 11:23:05 GMT 48.486298 4.867594 23,200 291 385 -3840
2019-10-19 11:23:01 GMT 48.483410 4.879158 23,075 291 391 -2752
2019-10-19 11:22:57 GMT 48.479221 4.895782 23,875 291 403 -1920
2019-10-19 11:22:54 GMT 48.479221 4.895782 23,300 291 397 -1664
2019-10-19 11:22:51 GMT 48.476753 4.905612 23,400 291 401 -1600
2019-10-19 11:22:48 GMT 48.474792 4.913424 23,525 291 403 -1920
2019-10-19 11:22:44 GMT 48.472424 4.922887 23,525 291 403 -1920
2019-10-19 11:22:40 GMT 48.470097 4.932066 23,750 292 407 -2496
2019-10-19 11:22:37 GMT 48.467583 4.941824 23,850 292 409 -2688
2019-10-19 11:22:34 GMT 48.465862 4.948473 24,100 292 412 -3264
2019-10-19 11:22:27 GMT 48.461159 4.966615 27,000 292 414 -5056
2019-10-19 11:22:24 GMT 48.458553 4.976518 24,825 292 414 -4736
2019-10-19 11:22:21 GMT 48.453758 4.994804 25,350 292 415 -4992
2019-10-19 11:22:17 GMT 48.453758 4.994804 25,525 292 415 -4800
2019-10-19 11:22:13 GMT 48.450825 5.006007 25,450 291 413 -4032
2019-10-19 11:22:07 GMT 48.447235 5.019977 26,550 291 410 -3968
2019-10-19 11:22:02 GMT 48.438721 5.054072 27,200 291 410 -3008
2019-10-19 11:21:55 GMT 48.435425 5.067444 27,125 291 410 -704
2019-10-19 11:21:51 GMT 48.435425 5.067444 27,000 291 410 -1792
2019-10-19 11:21:47 GMT 48.433182 5.076810 27,000 291 410 -448
2019-10-19 11:21:41 GMT 48.429565 5.091811 27,050 291 410 -384
2019-10-19 11:21:34 GMT 48.425175 5.109727 27,125 291 411 -1216
2019-10-19 11:21:31 GMT 48.423546 5.116376 27,175 291 414 -2048
2019-10-19 11:21:28 GMT 48.420639 5.128221 27,375 291 413 -1600
2019-10-19 11:21:24 GMT 48.418854 5.135475 27,575 291 422 -2944
2019-10-19 11:21:21 GMT 48.416142 5.146516 27,600 291 418 -2368
2019-10-19 11:21:18 GMT 48.411346 5.166110 28,100 291 418 -2304
2019-10-19 11:21:13 GMT 48.411346 5.166110 27,725 291 421 -2752
2019-10-19 11:21:10 GMT 48.406693 5.185185 28,100 291 426 -3904
2019-10-19 11:21:06 GMT 48.406693 5.185185 28,100 291 426 -3904
2019-10-19 11:21:02 GMT 48.403473 5.198294 28,350 291 427 -4096
2019-10-19 11:20:59 GMT 48.401386 5.206580 28,600 291 428 -4544
2019-10-19 11:20:56 GMT 48.399712 5.213230 33,125 291 429 -4864
2019-10-19 11:20:52 GMT 48.397148 5.223493 29,300 291 429 -4864
2019-10-19 11:20:49 GMT 48.394226 5.235197 29,500 291 430 -4928
2019-10-19 11:20:46 GMT 48.392761 5.241042 29,425 291 430 -5056
2019-10-19 11:20:43 GMT 48.390587 5.250019 33,125 291 418 -6144
2019-10-19 11:20:39 GMT 48.385254 5.272099 31,925 290 424 -6848
2019-10-19 11:20:35 GMT 48.385254 5.272099 30,675 290 426 -6976
2019-10-19 11:20:32 GMT 48.383560 5.279001 31,225 291 423 -6784
2019-10-19 11:20:28 GMT 48.380493 5.291678 31,350 314 440 -2944
2019-10-19 11:20:25 GMT 48.378342 5.300397 31,725 291 416 -5696
2019-10-19 11:20:20 GMT 48.375275 5.312805 32,150 291 411 -4224
2019-10-19 11:20:16 GMT 48.371639 5.327574 32,550 291 409 -3776
2019-10-19 11:20:10 GMT 48.368427 5.340656 32,850 291 408 -2944
2019-10-19 11:20:06 GMT 48.365524 5.352314 33,050 291 407 -2560
2019-10-19 11:20:02 GMT 48.363071 5.362051 33,150 291 407 -2496
2019-10-19 11:19:56 GMT 48.359116 5.378160 34,425 289 396 -2560
2019-10-19 11:19:53 GMT 48.357254 5.385541 33,625 290 401 -2496
2019-10-19 11:19:48 GMT 48.354649 5.396022 34,075 291 404 -2816
2019-10-19 11:19:45 GMT 48.351948 5.407008 34,025 291 402 -2624
2019-10-19 11:19:42 GMT 48.349571 5.416693 34,150 290 402 -2624
2019-10-19 11:19:38 GMT 48.347717 5.424570 34,375 290 399 -2560
2019-10-19 11:19:34 GMT 48.345245 5.434980 34,475 289 397 -2560
2019-10-19 11:19:31 GMT 48.343243 5.443870 34,550 289 396 -2560
2019-10-19 11:19:28 GMT 48.342079 5.449074 34,875 289 395 -2624
2019-10-19 11:19:25 GMT 48.340031 5.458181 34,850 289 395 -2880
2019-10-19 11:19:22 GMT 48.338352 5.465120 35,275 292 394 -3008
2019-10-19 11:19:16 GMT 48.334076 5.480347 35,400 299 405 -4096
2019-10-19 11:19:12 GMT 48.329727 5.493375 35,600 304 416 -3904
2019-10-19 11:19:09 GMT 48.324062 5.507547 36,425 307 424 -3520
2019-10-19 11:19:05 GMT 48.324062 5.507547 36,000 307 424 -3520
2019-10-19 11:19:01 GMT 48.319687 5.517161 36,275 306 422 -3648
2019-10-19 11:18:58 GMT 48.314892 5.526557 36,425 312 437 -2816
2019-10-19 11:18:55 GMT 48.312241 5.531405 36,525 312 437 -2816
2019-10-19 11:18:51 GMT 48.301716 5.548746 36,775 314 441 -2944
2019-10-19 11:18:48 GMT 48.301716 5.548746 36,925 314 439 -2560
2019-10-19 11:18:42 GMT 48.294342 5.560561 38,000 314 437 -64
2019-10-19 11:18:39 GMT 48.288895 5.569223 37,250 314 440 -2944
2019-10-19 11:18:35 GMT 48.283218 5.578308 38,000 314 437 0
2019-10-19 11:18:32 GMT 48.279884 5.583584 37,600 314 437 0
2019-10-19 11:18:26 GMT 48.268341 5.601943 37,850 314 438 -1152
2019-10-19 11:18:20 GMT 48.264175 5.608521 37,950 314 438 -384
2019-10-19 11:18:17 GMT 48.258610 5.617338 37,975 314 438 -448
2019-10-19 11:18:13 GMT 48.251953 5.627963 38,000 314 437 -128
2019-10-19 11:18:09 GMT 48.249207 5.632300 38,000 314 437 0
2019-10-19 11:18:06 GMT 48.243900 5.640684 38,000 314 437 0
2019-10-19 11:18:03 GMT 48.238632 5.649085 38,000 314 437 0
2019-10-19 11:18:00 GMT 48.230167 5.662440 38,000 314 437 0
2019-10-19 11:17:57 GMT 48.225464 5.669957 38,000 314 437 0
2019-10-19 11:17:53 GMT 48.225464 5.669957 38,000 314 437 0
2019-10-19 11:17:50 GMT 48.222382 5.674720 38,000 314 437 64
2019-10-19 11:17:47 GMT 48.218353 5.681058 38,000 314 437 0
2019-10-19 11:17:44 GMT 48.213223 5.689183 38,000 314 437 0
2019-10-19 11:17:41 GMT 48.205399 5.701411 38,000 314 437 -64
2019-10-19 11:17:38 GMT 48.201260 5.707976 38,000 314 437 -64
2019-10-19 11:17:35 GMT 48.201260 5.707976 38,000 314 437 0
2019-10-19 11:17:32 GMT 48.195393 5.717155 38,000 314 436 0
2019-10-19 11:17:29 GMT 48.191200 5.723732 38,000 314 436 0
2019-10-19 11:17:23 GMT 48.182869 5.736815 38,000 314 436 0
2019-10-19 11:17:20 GMT 48.179260 5.742469 38,000 315 435 64
2019-10-19 11:17:17 GMT 48.175781 5.747962 38,000 314 436 0
2019-10-19 11:17:12 GMT 48.168949 5.758643 38,000 314 436 0
2019-10-19 11:17:09 GMT 48.164246 5.766062 38,000 314 436 0
2019-10-19 11:17:05 GMT 48.158382 5.775217 38,000 297 412 0
2019-10-19 11:17:02 GMT 48.155590 5.779513 38,000 314 436 0
2019-10-19 11:16:59 GMT 48.151306 5.786274 38,000 314 436 0
2019-10-19 11:16:56 GMT 48.147259 5.792612 38,000 314 436 0
2019-10-19 11:16:51 GMT 48.138317 5.806486 38,000 314 436 0
2019-10-19 11:16:47 GMT 48.133850 5.813416 38,000 314 435 0
2019-10-19 11:16:44 GMT 48.129662 5.819937 38,000 314 435 0
2019-10-19 11:16:39 GMT 48.123001 5.830360 38,000 314 435 0
2019-10-19 11:16:36 GMT 48.117416 5.839027 38,000 314 436 0
2019-10-19 11:16:31 GMT 48.111504 5.848107 38,000 314 436 0
2019-10-19 11:16:28 GMT 48.102173 5.862579 38,000 314 436 0
2019-10-19 11:16:25 GMT 48.102173 5.862579 38,000 315 435 64
2019-10-19 11:16:21 GMT 48.097118 5.870361 38,000 315 436 0
2019-10-19 11:16:18 GMT 48.093201 5.876450 38,000 315 437 -64
2019-10-19 11:16:15 GMT 48.089531 5.882052 38,000 315 436 -64
2019-10-19 11:16:12 GMT 48.085876 5.887642 38,000 302 420 0
2019-10-19 11:16:09 GMT 48.081711 5.894165 38,000 313 434 64
2019-10-19 11:16:06 GMT 48.077133 5.901649 38,000 311 432 0
2019-10-19 11:16:03 GMT 48.071915 5.910988 38,000 306 426 0
2019-10-19 11:16:00 GMT 48.068939 5.916893 38,000 306 425 0
2019-10-19 11:15:57 GMT 48.066101 5.922867 38,000 304 422 0
2019-10-19 11:15:54 GMT 48.062904 5.930152 38,000 302 420 0
2019-10-19 11:15:50 GMT 48.058777 5.940651 38,000 299 416 0
2019-10-19 11:15:47 GMT 48.055984 5.948479 38,000 297 414 0
2019-10-19 11:15:42 GMT 48.052094 5.959946 38,000 297 414 0
2019-10-19 11:15:38 GMT 48.048706 5.970154 38,000 297 414 0
2019-10-19 11:15:35 GMT 48.045959 5.978348 38,000 297 415 0
2019-10-19 11:15:31 GMT 48.042423 5.988816 38,000 297 414 0
2019-10-19 11:15:28 GMT 48.039677 5.996986 38,000 297 415 0
2019-10-19 11:15:25 GMT 48.037354 6.003891 38,000 297 414 0
2019-10-19 11:15:22 GMT 48.033764 6.014592 38,000 297 415 0
2019-10-19 11:15:18 GMT 48.030945 6.022980 38,000 297 415 0
2019-10-19 11:15:14 GMT 48.028175 6.031142 38,000 297 414 0
2019-10-19 11:15:11 GMT 48.024776 6.041354 38,000 297 412 0
2019-10-19 11:15:06 GMT 48.021427 6.051284 38,000 296 409 0
2019-10-19 11:15:03 GMT 48.017563 6.062763 38,000 297 414 0
2019-10-19 11:15:00 GMT 48.015423 6.069172 38,000 297 413 0
2019-10-19 11:14:57 GMT 48.012497 6.077774 38,000 297 414 0
2019-10-19 11:14:53 GMT 48.009930 6.085440 38,000 297 414 0
2019-10-19 11:14:50 GMT 48.002060 6.108810 38,000 297 412 0
2019-10-19 11:14:45 GMT 48.002060 6.108810 38,000 297 413 0
2019-10-19 11:14:41 GMT 47.999222 6.117188 38,000 297 413 0
2019-10-19 11:14:36 GMT 47.994827 6.130165 38,000 297 413 0
2019-10-19 11:14:33 GMT 47.992798 6.136216 38,000 297 413 0
2019-10-19 11:14:30 GMT 47.989956 6.144597 38,000 297 413 0
2019-10-19 11:14:26 GMT 47.986931 6.153471 38,000 297 412 0
2019-10-19 11:14:23 GMT 47.984207 6.161613 38,000 297 413 0
2019-10-19 11:14:20 GMT 47.980682 6.171982 38,000 297 413 0
2019-10-19 11:14:16 GMT 47.978027 6.179878 38,000 297 412 0
2019-10-19 11:14:12 GMT 47.974182 6.191277 38,000 297 412 0
2019-10-19 11:14:09 GMT 47.972351 6.196564 38,000 297 412 64
2019-10-19 11:14:05 GMT 47.969193 6.205971 38,000 297 412 0
2019-10-19 11:14:02 GMT 47.965530 6.216888 38,000 297 412 0
2019-10-19 11:13:58 GMT 47.962692 6.225197 38,000 297 411 0
2019-10-19 11:13:54 GMT 47.959488 6.234604 38,000 297 412 0
2019-10-19 11:13:50 GMT 47.955688 6.245728 38,000 297 412 0
2019-10-19 11:13:47 GMT 47.953133 6.253263 38,000 297 412 0
2019-10-19 11:13:43 GMT 47.948730 6.266190 38,000 297 412 0
2019-10-19 11:13:40 GMT 47.946442 6.273056 38,000 297 411 0
2019-10-19 11:13:37 GMT 47.943871 6.280588 38,000 297 412 0
2019-10-19 11:13:34 GMT 47.942333 6.285166 38,000 297 412 0
2019-10-19 11:13:31 GMT 47.939819 6.292490 38,000 297 412 0
2019-10-19 11:13:28 GMT 47.936329 6.302842 38,000 297 412 0
2019-10-19 11:13:23 GMT 47.932697 6.313477 38,000 297 412 0
2019-10-19 11:13:19 GMT 47.928135 6.326857 38,000 297 411 0
2019-10-19 11:13:16 GMT 47.926437 6.331902 38,000 297 411 0
2019-10-19 11:13:13 GMT 47.921013 6.347774 38,000 297 411 0
2019-10-19 11:13:10 GMT 47.921013 6.347774 38,000 297 411 0
2019-10-19 11:13:07 GMT 47.919338 6.352844 38,000 297 411 0
2019-10-19 11:13:04 GMT 47.916405 6.361366 38,000 297 411 0
2019-10-19 11:12:58 GMT 47.910213 6.379535 38,000 297 411 0
2019-10-19 11:12:55 GMT 47.906021 6.391914 38,000 297 411 0
2019-10-19 11:12:49 GMT 47.902908 6.400978 38,000 297 411 0
2019-10-19 11:12:45 GMT 47.899796 6.410042 38,000 297 411 0
2019-10-19 11:12:42 GMT 47.893936 6.427208 38,000 298 411 0
2019-10-19 11:12:38 GMT 47.893936 6.427208 38,000 298 411 0
2019-10-19 11:12:35 GMT 47.891464 6.434486 38,000 298 411 0
2019-10-19 11:12:32 GMT 47.886795 6.448082 38,000 297 411 0
2019-10-19 11:12:26 GMT 47.883026 6.459186 38,000 298 411 0
2019-10-19 11:12:23 GMT 47.880432 6.466759 38,000 298 411 0
2019-10-19 11:12:18 GMT 47.876465 6.478342 38,000 298 411 0
2019-10-19 11:12:15 GMT 47.873978 6.485641 38,000 298 411 0
2019-10-19 11:12:12 GMT 47.871552 6.492714 38,000 298 411 0
2019-10-19 11:12:09 GMT 47.867989 6.503061 38,000 298 413 -64
2019-10-19 11:12:03 GMT 47.862823 6.518203 38,000 298 411 0
2019-10-19 11:12:00 GMT 47.860401 6.525245 38,000 298 411 0
2019-10-19 11:11:54 GMT 47.855888 6.538344 38,000 298 413 0
2019-10-19 11:11:51 GMT 47.852417 6.548470 38,000 298 413 0
2019-10-19 11:11:48 GMT 47.850719 6.553486 38,000 298 413 -64
2019-10-19 11:11:44 GMT 47.847748 6.562065 38,000 298 413 0
2019-10-19 11:11:41 GMT 47.845272 6.569331 38,000 298 413 0
2019-10-19 11:11:38 GMT 47.842209 6.578201 38,000 298 412 0
2019-10-19 11:11:35 GMT 47.839783 6.585274 38,000 298 411 0
2019-10-19 11:11:32 GMT 47.836334 6.595318 38,000 298 412 0
2019-10-19 11:11:28 GMT 47.832844 6.605389 38,000 298 412 0
2019-10-19 11:11:24 GMT 47.830143 6.613206 38,000 298 413 0
2019-10-19 11:11:21 GMT 47.827305 6.621516 38,000 298 413 0
2019-10-19 11:11:17 GMT 47.823120 6.633614 38,000 298 413 0
2019-10-19 11:11:13 GMT 47.820274 6.641940 38,000 298 413 64
2019-10-19 11:11:10 GMT 47.817665 6.649475 38,000 298 413 0
2019-10-19 11:11:06 GMT 47.813477 6.661588 38,000 298 413 0
2019-10-19 11:11:01 GMT 47.809147 6.674194 38,000 298 413 0
2019-10-19 11:10:58 GMT 47.806633 6.681519 38,000 298 413 0
2019-10-19 11:10:53 GMT 47.802795 6.692596 38,000 298 412 0
2019-10-19 11:10:50 GMT 47.800537 6.699125 38,000 298 412 0
2019-10-19 11:10:47 GMT 47.794113 6.717788 38,000 298 412 0
2019-10-19 11:10:43 GMT 47.794113 6.717788 38,000 298 412 0
2019-10-19 11:10:39 GMT 47.791084 6.726591 38,000 298 412 0
2019-10-19 11:10:35 GMT 47.787964 6.735649 38,000 298 412 0
2019-10-19 11:10:32 GMT 47.781776 6.753493 38,000 298 412 0
2019-10-19 11:10:25 GMT 47.778236 6.763775 38,000 298 412 0
2019-10-19 11:10:22 GMT 47.775723 6.771029 38,000 298 411 0
2019-10-19 11:10:18 GMT 47.772766 6.779594 38,000 298 411 0
2019-10-19 11:10:14 GMT 47.768135 6.792861 38,000 298 411 0
2019-10-19 11:10:11 GMT 47.763794 6.805412 38,000 298 411 -64
2019-10-19 11:10:08 GMT 47.760826 6.813988 38,000 298 411 0
2019-10-19 11:10:05 GMT 47.758759 6.819969 38,000 298 411 0
2019-10-19 11:10:02 GMT 47.758759 6.819969 38,000 298 411 0
2019-10-19 11:09:59 GMT 47.755196 6.830257 38,000 298 411 0
2019-10-19 11:09:56 GMT 47.752728 6.837299 38,000 298 411 0
2019-10-19 11:09:53 GMT 47.748459 6.849564 38,000 298 411 0
2019-10-19 11:09:47 GMT 47.745697 6.857582 38,000 298 411 0
2019-10-19 11:09:44 GMT 47.743694 6.863356 38,000 298 411 0
2019-10-19 11:09:41 GMT 47.740540 6.872360 38,000 298 411 0
2019-10-19 11:09:37 GMT 47.736713 6.883428 38,000 298 411 0
2019-10-19 11:09:34 GMT 47.734268 6.890419 38,000 298 411 0
2019-10-19 11:09:30 GMT 47.730801 6.900470 38,000 298 411 0
2019-10-19 11:09:27 GMT 47.728683 6.906487 38,000 298 411 0
2019-10-19 11:09:24 GMT 47.725540 6.915471 38,000 298 411 0
2019-10-19 11:09:21 GMT 47.722961 6.922966 38,000 298 411 0
2019-10-19 11:09:18 GMT 47.716827 6.940475 38,000 298 412 0
2019-10-19 11:09:14 GMT 47.716827 6.940475 38,000 298 412 0
2019-10-19 11:09:11 GMT 47.714275 6.947796 38,000 298 411 0
2019-10-19 11:09:08 GMT 47.708954 6.963066 38,000 298 411 0
2019-10-19 11:09:05 GMT 47.706253 6.970825 38,000 298 411 0
2019-10-19 11:09:02 GMT 47.703964 6.977280 38,000 298 411 0
2019-10-19 11:08:59 GMT 47.703964 6.977280 38,000 298 411 0
2019-10-19 11:08:56 GMT 47.700214 6.988079 38,000 298 411 0
2019-10-19 11:08:53 GMT 47.698631 6.992587 38,000 298 411 0
2019-10-19 11:08:49 GMT 47.695236 7.002305 38,000 298 411 0
2019-10-19 11:08:46 GMT 47.691650 7.012573 38,000 298 411 0
2019-10-19 11:08:42 GMT 47.689224 7.019577 38,000 298 411 0
2019-10-19 11:08:39 GMT 47.683552 7.035757 38,000 298 411 0
2019-10-19 11:08:33 GMT 47.680664 7.043997 38,000 298 411 0
2019-10-19 11:08:27 GMT 47.672192 7.068223 38,000 298 411 0
2019-10-19 11:08:24 GMT 47.672192 7.068223 38,000 298 411 0
2019-10-19 11:08:21 GMT 47.669632 7.075477 38,000 298 411 0
2019-10-19 11:08:17 GMT 47.663532 7.092942 38,000 298 411 0
2019-10-19 11:08:14 GMT 47.663532 7.092942 38,000 298 411 0
2019-10-19 11:08:11 GMT 47.661346 7.099140 38,000 298 411 0
2019-10-19 11:08:07 GMT 47.656723 7.112343 38,000 298 410 0
2019-10-19 11:08:04 GMT 47.655350 7.116325 38,000 298 410 0
2019-10-19 11:08:01 GMT 47.652969 7.123055 38,000 298 410 0
2019-10-19 11:07:58 GMT 47.650269 7.130745 38,000 298 410 0
2019-10-19 11:07:54 GMT 47.646790 7.140701 38,000 298 409 0
2019-10-19 11:07:50 GMT 47.643356 7.150383 38,000 298 409 0
2019-10-19 11:07:47 GMT 47.640907 7.157311 38,000 298 409 0
2019-10-19 11:07:43 GMT 47.637451 7.167274 38,000 298 409 0
2019-10-19 11:07:40 GMT 47.635090 7.174002 38,000 298 409 0
2019-10-19 11:07:37 GMT 47.632050 7.182655 38,000 298 409 0
2019-10-19 11:07:33 GMT 47.628571 7.192594 38,000 298 408 0
2019-10-19 11:07:30 GMT 47.625500 7.201256 38,000 298 408 0
2019-10-19 11:07:27 GMT 47.623444 7.207169 38,000 298 408 0
2019-10-19 11:07:23 GMT 47.620472 7.215623 38,000 298 407 0
2019-10-19 11:07:20 GMT 47.617493 7.223991 38,000 298 408 0
2019-10-19 11:07:17 GMT 47.613876 7.234428 38,000 298 407 0
2019-10-19 11:07:14 GMT 47.612045 7.239568 38,000 298 407 0
2019-10-19 11:07:11 GMT 47.610306 7.244522 38,000 298 407 0
2019-10-19 11:07:08 GMT 47.607346 7.252948 38,000 298 407 0
2019-10-19 11:07:05 GMT 47.604401 7.261276 38,000 298 407 0
2019-10-19 11:07:02 GMT 47.601883 7.268486 38,000 298 407 0
2019-10-19 11:06:59 GMT 47.599182 7.276108 38,000 298 407 0
2019-10-19 11:06:56 GMT 47.596481 7.283730 38,000 298 407 0
2019-10-19 11:06:53 GMT 47.593414 7.292381 38,000 298 407 0
2019-10-19 11:06:50 GMT 47.591518 7.297809 38,000 298 407 0
2019-10-19 11:06:47 GMT 47.589005 7.304922 38,000 298 407 0
2019-10-19 11:06:44 GMT 47.585312 7.315315 38,000 298 407 0
2019-10-19 11:06:41 GMT 47.582794 7.322456 38,000 298 407 0
2019-10-19 11:06:37 GMT 47.579956 7.330559 38,000 298 407 0
2019-10-19 11:06:33 GMT 47.575829 7.342177 38,000 298 407 0
2019-10-19 11:06:30 GMT 47.574188 7.346832 38,000 298 407 0
2019-10-19 11:06:27 GMT 47.571396 7.354729 38,000 298 407 0
2019-10-19 11:06:24 GMT 47.567917 7.364572 38,000 298 407 0
2019-10-19 11:06:20 GMT 47.565491 7.371483 38,000 298 407 0
2019-10-19 11:06:17 GMT 47.562790 7.379105 38,000 298 407 0
2019-10-19 11:06:14 GMT 47.560410 7.385765 38,000 298 407 0
2019-10-19 11:06:11 GMT 47.556881 7.395559 38,000 298 407 0
2019-10-19 11:06:08 GMT 47.554695 7.401757 38,000 298 407 0
2019-10-19 11:06:04 GMT 47.551025 7.412064 38,000 298 407 0
2019-10-19 11:05:58 GMT 47.545166 7.428612 38,000 298 407 0
2019-10-19 11:05:54 GMT 47.541843 7.437955 38,000 298 407 0
2019-10-19 11:05:50 GMT 47.538773 7.446547 38,000 298 408 0
2019-10-19 11:05:47 GMT 47.536469 7.452988 38,000 298 408 0
2019-10-19 11:05:43 GMT 47.532898 7.463081 38,000 298 408 0
2019-10-19 11:05:40 GMT 47.530014 7.471252 38,000 298 408 0
2019-10-19 11:05:37 GMT 47.526947 7.479836 38,000 298 408 0
2019-10-19 11:05:33 GMT 47.523968 7.488239 38,000 298 408 0
2019-10-19 11:05:30 GMT 47.521317 7.495628 38,000 298 408 0
2019-10-19 11:05:27 GMT 47.518150 7.504507 38,000 298 408 0
2019-10-19 11:05:24 GMT 47.515869 7.510941 38,000 298 408 0
2019-10-19 11:05:21 GMT 47.509918 7.527695 38,000 298 409 0
2019-10-19 11:05:18 GMT 47.509918 7.527695 38,000 298 409 0
2019-10-19 11:05:14 GMT 47.506557 7.537114 38,000 298 409 0
2019-10-19 11:05:10 GMT 47.499435 7.557083 38,000 298 409 0
2019-10-19 11:05:06 GMT 47.499435 7.557083 38,000 298 409 0
2019-10-19 11:05:03 GMT 47.497154 7.563524 38,000 298 409 0
2019-10-19 11:05:00 GMT 47.494858 7.569923 38,000 298 409 0
2019-10-19 11:04:57 GMT 47.492409 7.576834 38,000 298 409 0
2019-10-19 11:04:54 GMT 47.489288 7.585496 38,000 298 409 0
2019-10-19 11:04:51 GMT 47.487030 7.591896 38,000 298 409 0
2019-10-19 11:04:47 GMT 47.480850 7.609131 38,000 298 409 0
2019-10-19 11:04:44 GMT 47.480850 7.609131 38,000 298 409 64
2019-10-19 11:04:41 GMT 47.477837 7.617540 38,000 298 409 0
2019-10-19 11:04:38 GMT 47.476067 7.622469 38,000 298 409 0
2019-10-19 11:04:35 GMT 47.473434 7.629868 38,000 298 409 0
2019-10-19 11:04:32 GMT 47.467270 7.647189 38,000 298 409 0
2019-10-19 11:04:29 GMT 47.463638 7.657259 38,000 298 409 0
2019-10-19 11:04:25 GMT 47.463638 7.657259 38,000 298 409 0
2019-10-19 11:04:22 GMT 47.461449 7.663457 38,000 298 409 64
2019-10-19 11:04:19 GMT 47.459400 7.669091 38,000 298 409 64
2019-10-19 11:04:16 GMT 47.452606 7.688095 38,000 298 410 0
2019-10-19 11:04:13 GMT 47.452606 7.688095 38,000 298 410 0
2019-10-19 11:04:07 GMT 47.448277 7.700219 38,000 298 411 0
2019-10-19 11:04:04 GMT 47.445530 7.707895 38,000 298 410 0
2019-10-19 11:04:01 GMT 47.442268 7.717050 38,000 298 410 0
2019-10-19 11:03:58 GMT 47.437756 7.729657 38,000 298 411 0
2019-10-19 11:03:55 GMT 47.437756 7.729657 38,000 298 411 0
2019-10-19 11:03:52 GMT 47.432327 7.744743 38,000 298 411 0
2019-10-19 11:03:46 GMT 47.428955 7.754164 38,000 298 411 0
2019-10-19 11:03:43 GMT 47.427139 7.759376 38,000 298 411 0
2019-10-19 11:03:40 GMT 47.423512 7.769517 38,000 298 411 0
2019-10-19 11:03:37 GMT 47.421646 7.774729 38,000 298 411 0
2019-10-19 11:03:34 GMT 47.419098 7.781960 38,000 298 411 0
2019-10-19 11:03:30 GMT 47.415527 7.791847 38,000 298 413 0
2019-10-19 11:03:27 GMT 47.413315 7.798039 38,000 298 411 0
2019-10-19 11:03:24 GMT 47.410755 7.805223 38,025 298 411 0
2019-10-19 11:03:21 GMT 47.407928 7.813202 38,000 298 411 0
2019-10-19 11:03:18 GMT 47.404934 7.821632 38,000 300 421 64
2019-10-19 11:03:15 GMT 47.402481 7.828583 38,025 298 413 0
2019-10-19 11:03:12 GMT 47.399368 7.837234 38,000 298 413 0
2019-10-19 11:03:07 GMT 47.395248 7.848907 38,000 298 413 0
2019-10-19 11:03:04 GMT 47.392136 7.857628 38,000 298 413 0
2019-10-19 11:03:01 GMT 47.390259 7.862846 38,000 298 413 0
2019-10-19 11:02:58 GMT 47.386734 7.872831 38,000 298 413 0
2019-10-19 11:02:55 GMT 47.384872 7.878042 38,000 298 413 0
2019-10-19 11:02:52 GMT 47.379517 7.892973 38,000 298 414 0
2019-10-19 11:02:49 GMT 47.376350 7.901635 38,000 299 414 64
2019-10-19 11:02:46 GMT 47.376350 7.901635 38,000 299 414 0
2019-10-19 11:02:43 GMT 47.373001 7.910843 38,000 299 415 0
2019-10-19 11:02:40 GMT 47.370255 7.918326 38,000 299 415 0
2019-10-19 11:02:37 GMT 47.368515 7.922997 38,000 299 415 0
2019-10-19 11:02:34 GMT 47.361923 7.940575 38,000 300 416 0
2019-10-19 11:02:30 GMT 47.361923 7.940575 38,000 300 416 0
2019-10-19 11:02:27 GMT 47.358994 7.948265 38,000 300 416 0
2019-10-19 11:02:24 GMT 47.352219 7.965981 38,000 300 417 0
2019-10-19 11:02:20 GMT 47.352219 7.965981 38,000 300 416 0
2019-10-19 11:02:17 GMT 47.348419 7.975863 38,000 300 416 0
2019-10-19 11:02:14 GMT 47.346130 7.981842 38,000 300 416 0
2019-10-19 11:02:11 GMT 47.343613 7.988503 38,000 300 416 0
2019-10-19 11:02:08 GMT 47.336876 8.006005 38,000 300 416 0
2019-10-19 11:02:04 GMT 47.336876 8.006005 38,000 300 416 0
2019-10-19 11:02:00 GMT 47.333084 8.015900 38,000 300 417 0
2019-10-19 11:01:57 GMT 47.329845 8.024245 38,000 300 417 0
2019-10-19 11:01:52 GMT 47.325565 8.035372 38,000 300 417 0
2019-10-19 11:01:49 GMT 47.322632 8.043049 38,000 300 418 0
2019-10-19 11:01:46 GMT 47.319653 8.050654 38,000 300 418 0
2019-10-19 11:01:42 GMT 47.316238 8.059570 38,000 300 418 0
2019-10-19 11:01:39 GMT 47.313446 8.066711 38,000 300 418 0
2019-10-19 11:01:36 GMT 47.310806 8.073613 38,000 300 418 0
2019-10-19 11:01:33 GMT 47.307453 8.082275 38,000 300 418 0
2019-10-19 11:01:30 GMT 47.305481 8.087448 38,000 300 418 0
2019-10-19 11:01:26 GMT 47.300194 8.101079 38,000 300 418 0
2019-10-19 11:01:23 GMT 47.293350 8.118826 38,000 300 418 0
2019-10-19 11:01:19 GMT 47.293350 8.118826 38,000 300 418 0
2019-10-19 11:01:16 GMT 47.287624 8.133686 38,000 300 418 0
2019-10-19 11:01:13 GMT 47.287624 8.133686 38,000 300 418 0
2019-10-19 11:01:10 GMT 47.285713 8.138616 38,000 300 418 0
2019-10-19 11:01:06 GMT 47.281906 8.148491 38,000 300 418 0
2019-10-19 11:01:03 GMT 47.279114 8.155632 38,000 300 418 0
2019-10-19 11:01:00 GMT 47.273575 8.169983 38,000 300 418 0
2019-10-19 11:00:54 GMT 47.269749 8.179885 38,000 300 418 0
2019-10-19 11:00:50 GMT 47.264023 8.194674 38,000 300 419 0
2019-10-19 11:00:47 GMT 47.260345 8.204109 38,000 300 418 0
2019-10-19 11:00:44 GMT 47.260345 8.204109 38,000 300 418 0
2019-10-19 11:00:41 GMT 47.258377 8.209259 38,000 300 418 0
2019-10-19 11:00:38 GMT 47.254440 8.219421 38,000 300 418 0
2019-10-19 11:00:35 GMT 47.249268 8.232742 38,000 300 419 -64
2019-10-19 11:00:32 GMT 47.245632 8.242141 38,000 300 418 0
2019-10-19 11:00:29 GMT 47.245632 8.242141 38,000 300 418 0
2019-10-19 11:00:25 GMT 47.241623 8.252518 38,000 300 418 0
2019-10-19 11:00:21 GMT 47.238743 8.259958 38,000 300 418 0
2019-10-19 11:00:18 GMT 47.235950 8.267071 38,000 300 419 0
2019-10-19 11:00:15 GMT 47.232971 8.274747 38,000 300 419 0
2019-10-19 11:00:12 GMT 47.230412 8.281438 38,000 300 419 0
2019-10-19 11:00:09 GMT 47.227245 8.289537 38,000 300 419 0
2019-10-19 11:00:06 GMT 47.223705 8.298692 38,000 300 418 0
2019-10-19 11:00:03 GMT 47.221756 8.303604 38,000 300 418 0
2019-10-19 11:00:00 GMT 47.219101 8.310539 38,000 300 418 0
2019-10-19 10:59:57 GMT 47.216213 8.317918 38,000 300 418 0
2019-10-19 10:59:54 GMT 47.212673 8.327073 38,000 300 418 0
2019-10-19 10:59:51 GMT 47.209991 8.333954 38,000 300 418 0
2019-10-19 10:59:48 GMT 47.207134 8.341370 38,000 300 419 0
2019-10-19 10:59:44 GMT 47.203316 8.351229 38,000 300 419 0
2019-10-19 10:59:41 GMT 47.199921 8.359840 38,000 300 419 0
2019-10-19 10:59:38 GMT 47.196854 8.367737 38,000 300 419 0
2019-10-19 10:59:35 GMT 47.194931 8.372681 38,000 300 419 0
2019-10-19 10:59:32 GMT 47.191494 8.381582 38,000 300 419 -64
2019-10-19 10:59:29 GMT 47.188797 8.388474 38,000 300 419 -64
2019-10-19 10:59:26 GMT 47.185905 8.395879 38,025 300 419 0
2019-10-19 10:59:23 GMT 47.183029 8.403236 38,000 300 419 0
2019-10-19 10:59:17 GMT 47.177444 8.417519 38,000 300 419 0
2019-10-19 10:59:14 GMT 47.173874 8.426651 38,000 300 419 0
2019-10-19 10:59:11 GMT 47.171520 8.432570 38,000 300 420 0
2019-10-19 10:59:07 GMT 47.167984 8.441726 38,000 300 420 0
2019-10-19 10:59:04 GMT 47.164307 8.451096 38,000 300 420 0
2019-10-19 10:59:01 GMT 47.161880 8.457275 38,000 300 421 0
2019-10-19 10:58:58 GMT 47.156345 8.471375 38,000 300 421 0
2019-10-19 10:58:52 GMT 47.151783 8.482995 38,000 300 421 0
2019-10-19 10:58:49 GMT 47.149830 8.487924 38,000 300 421 0
2019-10-19 10:58:46 GMT 47.147507 8.493874 38,000 300 421 -64
2019-10-19 10:58:43 GMT 47.143265 8.504756 38,000 300 421 0
2019-10-19 10:58:40 GMT 47.141773 8.508489 38,000 300 421 0
2019-10-19 10:58:36 GMT 47.138378 8.517151 38,000 300 421 0
2019-10-19 10:58:33 GMT 47.134605 8.526799 38,000 300 421 64
2019-10-19 10:58:30 GMT 47.131580 8.534475 38,000 300 421 0
2019-10-19 10:58:27 GMT 47.129162 8.540602 38,000 300 421 0
2019-10-19 10:58:24 GMT 47.125950 8.548772 38,000 300 421 -64
2019-10-19 10:58:21 GMT 47.119572 8.565110 38,000 300 421 -64
2019-10-19 10:58:18 GMT 47.119572 8.565110 38,000 300 421 -64
2019-10-19 10:58:15 GMT 47.117203 8.571053 38,000 300 421 0
2019-10-19 10:58:12 GMT 47.113815 8.579636 38,000 300 420 128
2019-10-19 10:58:08 GMT 47.109749 8.589971 38,000 300 420 128
2019-10-19 10:58:05 GMT 47.107746 8.595182 38,000 300 420 -64
2019-10-19 10:58:02 GMT 47.104904 8.602295 38,000 300 407 64
2019-10-19 10:57:59 GMT 47.101822 8.610191 38,000 301 419 -128
2019-10-19 10:57:56 GMT 47.095177 8.627085 38,000 300 418 -64
2019-10-19 10:57:53 GMT 47.095177 8.627085 38,000 300 407 64
2019-10-19 10:57:50 GMT 47.093033 8.632507 38,000 300 418 0
2019-10-19 10:57:47 GMT 47.089874 8.640541 38,000 300 416 0
2019-10-19 10:57:44 GMT 47.088135 8.644936 38,000 300 415 64
2019-10-19 10:57:40 GMT 47.082840 8.658353 38,000 301 415 64
2019-10-19 10:57:37 GMT 47.080235 8.664973 38,000 300 415 64
2019-10-19 10:57:34 GMT 47.078323 8.669833 38,000 300 413 0
2019-10-19 10:57:30 GMT 47.074402 8.679817 38,000 301 403 256
2019-10-19 10:57:27 GMT 47.070599 8.689481 38,000 300 413 0
2019-10-19 10:57:24 GMT 47.067291 8.698003 38,000 300 413 0
2019-10-19 10:57:21 GMT 47.065289 8.703073 38,000 301 403 256
2019-10-19 10:57:18 GMT 47.058449 8.720468 38,000 300 408 64
2019-10-19 10:57:14 GMT 47.058449 8.720468 38,000 300 408 64
2019-10-19 10:57:11 GMT 47.055588 8.727676 37,975 301 409 64
2019-10-19 10:57:08 GMT 47.053024 8.734131 38,000 301 409 64
2019-10-19 10:57:05 GMT 47.050392 8.740821 38,000 300 408 0
2019-10-19 10:57:02 GMT 47.048161 8.746596 38,000 300 408 64
2019-10-19 10:56:59 GMT 47.045040 8.754484 38,000 300 406 64
2019-10-19 10:56:56 GMT 47.042107 8.761878 38,000 300 406 64
2019-10-19 10:56:53 GMT 47.038662 8.770682 37,975 300 406 128
2019-10-19 10:56:50 GMT 47.035446 8.778763 37,975 301 405 192
2019-10-19 10:56:47 GMT 47.033958 8.782513 37,975 301 405 192
2019-10-19 10:56:44 GMT 47.030701 8.790823 37,975 301 404 512
2019-10-19 10:56:41 GMT 47.027298 8.799294 37,925 301 404 704
2019-10-19 10:56:38 GMT 47.024963 8.805199 37,875 301 405 320
2019-10-19 10:56:35 GMT 47.022511 8.811387 37,700 301 405 1088
2019-10-19 10:56:32 GMT 47.019699 8.818451 37,750 301 406 704
2019-10-19 10:56:29 GMT 47.016132 8.827444 37,725 301 405 960
2019-10-19 10:56:26 GMT 47.013386 8.834275 37,675 301 405 1024
2019-10-19 10:56:23 GMT 47.010872 8.840684 37,550 301 405 1024
2019-10-19 10:56:20 GMT 47.006634 8.851389 37,575 301 405 1024
2019-10-19 10:56:16 GMT 47.003235 8.859910 37,525 301 406 832
2019-10-19 10:56:13 GMT 47.001328 8.864629 37,400 301 406 704
2019-10-19 10:56:10 GMT 46.998138 8.872696 37,375 301 406 704
2019-10-19 10:56:07 GMT 46.995758 8.878670 37,425 301 406 704
2019-10-19 10:56:04 GMT 46.993195 8.885056 37,400 301 406 640
2019-10-19 10:56:01 GMT 46.990013 8.893151 37,375 301 406 640
2019-10-19 10:55:58 GMT 46.983856 8.908607 37,225 301 397 192
2019-10-19 10:55:55 GMT 46.983856 8.908607 37,275 301 406 576
2019-10-19 10:55:51 GMT 46.980011 8.918289 37,250 301 396 320
2019-10-19 10:55:47 GMT 46.976234 8.927800 37,225 300 406 384
2019-10-19 10:55:44 GMT 46.973907 8.933716 37,225 300 406 384
2019-10-19 10:55:40 GMT 46.970901 8.941292 37,150 301 396 320
2019-10-19 10:55:36 GMT 46.965866 8.954063 37,100 301 397 64
2019-10-19 10:55:32 GMT 46.959198 8.970830 37,150 300 404 256
2019-10-19 10:55:29 GMT 46.959198 8.970830 37,125 300 402 256
2019-10-19 10:55:26 GMT 46.956802 8.976997 37,125 300 402 256
2019-10-19 10:55:23 GMT 46.953186 8.986130 37,100 301 401 256
2019-10-19 10:55:17 GMT 46.946136 9.003983 37,075 301 401 192
2019-10-19 10:55:14 GMT 46.946136 9.003983 37,050 301 398 64
2019-10-19 10:55:11 GMT 46.943371 9.010972 37,050 301 399 128
2019-10-19 10:55:08 GMT 46.940296 9.018649 37,050 301 398 64
2019-10-19 10:55:05 GMT 46.936981 9.027054 37,050 301 398 64
2019-10-19 10:55:02 GMT 46.934570 9.033086 37,050 301 397 128
2019-10-19 10:54:59 GMT 46.932816 9.037491 37,050 301 396 320
2019-10-19 10:54:56 GMT 46.929977 9.044632 37,025 301 397 256
2019-10-19 10:54:53 GMT 46.926086 9.054314 37,000 301 396 768
2019-10-19 10:54:50 GMT 46.923477 9.060768 36,975 301 396 1088
2019-10-19 10:54:47 GMT 46.920868 9.067223 36,750 301 396 1664
2019-10-19 10:54:44 GMT 46.918465 9.073228 36,800 301 398 2240
2019-10-19 10:54:41 GMT 46.914925 9.082031 36,725 301 412 3008
2019-10-19 10:54:37 GMT 46.908875 9.096954 35,975 301 406 3520
2019-10-19 10:54:34 GMT 46.908875 9.096954 35,975 301 412 2944
2019-10-19 10:54:31 GMT 46.906219 9.103615 36,075 301 410 3200
2019-10-19 10:54:28 GMT 46.903061 9.111443 35,475 301 426 1024
2019-10-19 10:54:25 GMT 46.899982 9.119145 35,575 301 412 2880
2019-10-19 10:54:22 GMT 46.896400 9.128089 35,675 301 418 2048
2019-10-19 10:54:19 GMT 46.893604 9.135132 35,600 301 419 1600
2019-10-19 10:54:15 GMT 46.891136 9.141259 35,175 301 424 1344
2019-10-19 10:54:12 GMT 46.888298 9.148301 35,475 301 421 1408
2019-10-19 10:54:09 GMT 46.884480 9.157879 35,400 301 422 1472
2019-10-19 10:54:06 GMT 46.881035 9.166471 35,325 301 422 1472
2019-10-19 10:54:03 GMT 46.878113 9.173790 35,200 301 423 1536
2019-10-19 10:54:00 GMT 46.875641 9.179970 35,075 301 423 1472
2019-10-19 10:53:56 GMT 46.871494 9.190345 34,675 301 426 1216
2019-10-19 10:53:53 GMT 46.869492 9.195275 35,025 301 425 1088
2019-10-19 10:53:50 GMT 46.866138 9.203728 34,975 301 426 1024
2019-10-19 10:53:47 GMT 46.860580 9.217596 34,800 301 427 1024
2019-10-19 10:53:41 GMT 46.856785 9.227005 34,800 301 427 1088
2019-10-19 10:53:38 GMT 46.853806 9.234478 34,725 301 426 1024
2019-10-19 10:53:35 GMT 46.851662 9.239914 34,725 301 426 1024
2019-10-19 10:53:32 GMT 46.848541 9.247673 34,675 301 426 1088
2019-10-19 10:53:29 GMT 46.845238 9.255844 34,375 301 426 1152
2019-10-19 10:53:25 GMT 46.840771 9.266968 34,525 300 423 1024
2019-10-19 10:53:22 GMT 46.837784 9.274471 34,500 301 427 768
2019-10-19 10:53:19 GMT 46.834900 9.281639 34,425 301 427 768
2019-10-19 10:53:16 GMT 46.831970 9.288806 34,375 301 426 896
2019-10-19 10:53:09 GMT 46.822128 9.313392 34,250 301 426 960
2019-10-19 10:53:06 GMT 46.822128 9.313392 34,175 301 426 960
2019-10-19 10:53:03 GMT 46.819244 9.320560 34,175 301 426 1152
2019-10-19 10:52:58 GMT 46.814468 9.332405 34,025 301 426 1280
2019-10-19 10:52:55 GMT 46.811207 9.340576 34,025 301 426 1280
2019-10-19 10:52:51 GMT 46.807205 9.350464 33,950 301 426 1216
2019-10-19 10:52:47 GMT 46.803528 9.359665 33,825 301 426 1152
2019-10-19 10:52:44 GMT 46.796543 9.377037 33,675 301 426 1024
2019-10-19 10:52:41 GMT 46.796543 9.377037 33,750 301 426 1024
2019-10-19 10:52:38 GMT 46.793564 9.384468 33,700 301 428 1600
2019-10-19 10:52:35 GMT 46.790268 9.392641 33,650 301 426 1152
2019-10-19 10:52:32 GMT 46.788258 9.397568 33,600 301 426 1024
2019-10-19 10:52:29 GMT 46.782253 9.412399 33,525 301 426 1088
2019-10-19 10:52:26 GMT 46.778156 9.422562 33,375 301 426 1088
2019-10-19 10:52:23 GMT 46.778156 9.422562 33,375 301 426 1216
2019-10-19 10:52:20 GMT 46.775269 9.429703 33,300 301 426 1280
2019-10-19 10:52:17 GMT 46.772278 9.437122 33,300 301 426 1216
2019-10-19 10:52:13 GMT 46.769497 9.444054 33,150 301 427 1408
2019-10-19 10:52:08 GMT 46.764267 9.456951 33,150 301 428 1408
2019-10-19 10:52:05 GMT 46.761383 9.464119 32,750 301 428 1728
2019-10-19 10:52:02 GMT 46.758369 9.471519 32,700 301 430 1344
2019-10-19 10:51:57 GMT 46.753624 9.483192 32,525 301 429 1664
2019-10-19 10:51:54 GMT 46.749115 9.494398 32,725 301 430 1408
2019-10-19 10:51:51 GMT 46.747200 9.499191 32,700 301 430 1152
2019-10-19 10:51:47 GMT 46.743256 9.508868 32,650 301 430 768
2019-10-19 10:51:43 GMT 46.739613 9.517868 32,525 301 428 576
2019-10-19 10:51:40 GMT 46.736118 9.526588 32,525 301 428 576
2019-10-19 10:51:35 GMT 46.729553 9.542725 32,500 301 428 704
2019-10-19 10:51:32 GMT 46.727692 9.547394 32,475 301 427 704
2019-10-19 10:51:29 GMT 46.724670 9.554823 32,350 301 425 896
2019-10-19 10:51:26 GMT 46.722668 9.559753 32,300 301 424 960
2019-10-19 10:51:23 GMT 46.719681 9.567149 32,275 301 424 1024
2019-10-19 10:51:19 GMT 46.715263 9.578018 32,225 301 424 1088
2019-10-19 10:51:16 GMT 46.712379 9.585159 32,200 301 424 1088
2019-10-19 10:51:13 GMT 46.708969 9.593476 32,175 301 421 704
2019-10-19 10:51:10 GMT 46.706085 9.600644 32,025 301 424 960
2019-10-19 10:51:06 GMT 46.702194 9.610224 32,075 301 424 960
2019-10-19 10:51:01 GMT 46.696518 9.624157 31,975 301 424 896
2019-10-19 10:50:55 GMT 46.688828 9.642982 31,800 301 422 896
2019-10-19 10:50:48 GMT 46.683842 9.655197 31,800 301 421 960
2019-10-19 10:50:44 GMT 46.679764 9.665222 31,725 301 421 960
2019-10-19 10:50:41 GMT 46.674995 9.676895 31,650 301 421 960
2019-10-19 10:50:35 GMT 46.671570 9.685118 31,600 301 420 1088
2019-10-19 10:50:32 GMT 46.667919 9.694130 31,550 301 420 1088
2019-10-19 10:50:28 GMT 46.659668 9.714192 31,450 301 419 64
2019-10-19 10:50:23 GMT 46.659668 9.714192 31,400 301 420 1088
2019-10-19 10:50:20 GMT 46.656601 9.721695 31,050 301 419 1152
2019-10-19 10:50:17 GMT 46.654083 9.727724 31,275 301 419 1152
2019-10-19 10:50:14 GMT 46.650742 9.735947 31,225 301 419 1152
2019-10-19 10:50:11 GMT 46.647621 9.743500 31,150 301 419 1216
2019-10-19 10:50:08 GMT 46.643692 9.753113 31,075 301 420 960
2019-10-19 10:50:04 GMT 46.640396 9.761152 31,000 301 421 448
2019-10-19 10:49:58 GMT 46.632355 9.780785 31,000 301 420 0
2019-10-19 10:49:52 GMT 46.622623 9.804886 30,000 300 418 192
2019-10-19 10:49:46 GMT 46.622623 9.804886 31,000 301 419 64
2019-10-19 10:49:43 GMT 46.619785 9.811890 31,000 300 416 384
2019-10-19 10:49:36 GMT 46.612801 9.829399 30,950 300 417 192
2019-10-19 10:49:33 GMT 46.609451 9.837914 30,950 300 417 320
2019-10-19 10:49:28 GMT 46.600700 9.860573 30,900 300 415 832
2019-10-19 10:49:24 GMT 46.600700 9.860573 30,875 299 414 960
2019-10-19 10:49:21 GMT 46.599209 9.864418 30,850 300 415 1216
2019-10-19 10:49:15 GMT 46.589340 9.889618 30,675 301 416 1216
2019-10-19 10:49:05 GMT 46.581848 9.905716 30,475 308 423 1664
2019-10-19 10:49:01 GMT 46.578049 9.912616 30,425 310 426 1472
2019-10-19 10:48:58 GMT 46.574020 9.919248 30,350 314 430 1088
2019-10-19 10:48:55 GMT 46.570724 9.924272 30,000 315 431 128
2019-10-19 10:48:52 GMT 46.565094 9.932110 30,200 318 433 1088
2019-10-19 10:48:49 GMT 46.561131 9.937408 30,200 315 431 64
2019-10-19 10:48:44 GMT 46.553913 9.947021 30,075 317 432 1024
2019-10-19 10:48:40 GMT 46.548885 9.954025 30,075 317 432 960
2019-10-19 10:48:36 GMT 46.542297 9.963260 30,000 315 431 0
2019-10-19 10:48:33 GMT 46.538086 9.969406 30,000 315 431 0
2019-10-19 10:48:30 GMT 46.535019 9.973978 30,000 314 430 0
2019-10-19 10:48:27 GMT 46.529663 9.982151 30,000 313 430 -64
2019-10-19 10:48:22 GMT 46.523048 9.992477 30,000 313 429 0
2019-10-19 10:48:18 GMT 46.518402 9.999970 30,000 312 429 0
2019-10-19 10:48:15 GMT 46.510109 10.013901 30,000 311 428 -64
2019-10-19 10:48:12 GMT 46.510109 10.013901 30,000 311 428 0
2019-10-19 10:48:09 GMT 46.507050 10.019129 30,000 310 428 0
2019-10-19 10:48:06 GMT 46.502426 10.027302 30,000 309 427 0
2019-10-19 10:48:03 GMT 46.498718 10.034001 30,000 307 426 -64
2019-10-19 10:48:00 GMT 46.494965 10.040968 30,000 308 426 0
2019-10-19 10:47:57 GMT 46.491257 10.048002 30,000 307 425 0
2019-10-19 10:47:54 GMT 46.486740 10.056679 30,000 306 425 0
2019-10-19 10:47:50 GMT 46.483387 10.063408 30,000 306 425 64
2019-10-19 10:47:46 GMT 46.477707 10.075012 30,000 305 425 0
2019-10-19 10:47:40 GMT 46.472168 10.086754 30,000 304 425 0
2019-10-19 10:47:37 GMT 46.469238 10.093153 30,000 303 424 0
2019-10-19 10:47:33 GMT 46.465530 10.101527 30,000 303 424 0
2019-10-19 10:47:29 GMT 46.459412 10.115730 30,000 302 423 0
2019-10-19 10:47:23 GMT 46.453766 10.129596 30,000 297 420 64
2019-10-19 10:47:19 GMT 46.450661 10.137428 30,000 299 422 64
2019-10-19 10:47:16 GMT 46.447777 10.145119 30,000 299 422 64
2019-10-19 10:47:11 GMT 46.443211 10.157547 30,000 296 416 64
2019-10-19 10:47:08 GMT 46.440746 10.164551 30,000 296 419 0
2019-10-19 10:47:03 GMT 46.436554 10.176957 30,000 296 419 0
2019-10-19 10:47:00 GMT 46.430695 10.195246 30,000 295 418 0
2019-10-19 10:46:57 GMT 46.430695 10.195246 30,000 295 417 0
2019-10-19 10:46:54 GMT 46.429340 10.199570 30,000 295 417 0
2019-10-19 10:46:50 GMT 46.426128 10.209663 30,000 295 415 0
2019-10-19 10:46:46 GMT 46.420544 10.227379 30,000 295 414 0
2019-10-19 10:46:40 GMT 46.417419 10.237248 30,000 295 414 -64
2019-10-19 10:46:37 GMT 46.415047 10.244751 30,000 295 414 -64
2019-10-19 10:46:33 GMT 46.411377 10.256340 30,000 295 413 -128
2019-10-19 10:46:26 GMT 46.406811 10.270638 30,025 295 412 0
2019-10-19 10:46:22 GMT 46.403641 10.280658 30,000 295 410 0
2019-10-19 10:46:18 GMT 46.400383 10.290894 30,000 295 411 0
2019-10-19 10:46:14 GMT 46.396660 10.302635 30,000 295 410 0
2019-10-19 10:46:09 GMT 46.392891 10.314583 30,000 295 410 0
2019-10-19 10:46:06 GMT 46.390095 10.323303 30,000 295 410 64
2019-10-19 10:46:02 GMT 46.386978 10.332985 30,000 295 410 64
2019-10-19 10:45:59 GMT 46.385101 10.339006 30,000 295 411 0
2019-10-19 10:45:55 GMT 46.381851 10.349255 30,000 295 411 0
2019-10-19 10:45:52 GMT 46.379158 10.357704 30,000 295 412 0
2019-10-19 10:45:44 GMT 46.372547 10.378510 30,000 295 411 0
2019-10-19 10:45:41 GMT 46.370178 10.385965 30,000 295 411 0
2019-10-19 10:45:34 GMT 46.365326 10.401239 30,000 295 411 0
2019-10-19 10:45:31 GMT 46.361023 10.414704 30,000 295 410 64
2019-10-19 10:45:28 GMT 46.361023 10.414704 30,000 295 410 64
2019-10-19 10:45:24 GMT 46.357544 10.425623 30,000 295 411 0
2019-10-19 10:45:20 GMT 46.354343 10.435638 30,000 295 410 128
2019-10-19 10:45:17 GMT 46.352509 10.441366 30,000 295 410 128
2019-10-19 10:45:13 GMT 46.348946 10.452599 30,000 295 411 64
2019-10-19 10:45:09 GMT 46.345081 10.464821 30,000 295 411 64
2019-10-19 10:45:04 GMT 46.340939 10.477730 29,975 295 410 128
2019-10-19 10:45:01 GMT 46.338749 10.484734 29,975 295 417 2304
2019-10-19 10:44:58 GMT 46.336281 10.492424 29,975 295 410 256
2019-10-19 10:44:53 GMT 46.332790 10.503410 29,950 295 409 768
2019-10-19 10:44:49 GMT 46.329254 10.514534 29,875 295 409 832
2019-10-19 10:44:46 GMT 46.327950 10.518517 29,850 295 409 896
2019-10-19 10:44:40 GMT 46.322662 10.535085 29,750 295 409 1088
2019-10-19 10:44:37 GMT 46.319870 10.543793 29,675 295 410 1408
2019-10-19 10:44:32 GMT 46.315842 10.556254 29,525 296 411 1792
2019-10-19 10:44:26 GMT 46.311447 10.569919 29,350 296 413 2176
2019-10-19 10:44:23 GMT 46.309326 10.576469 29,250 295 415 2240
2019-10-19 10:44:20 GMT 46.307098 10.583451 29,150 295 416 2304
2019-10-19 10:44:15 GMT 46.302441 10.597893 28,750 295 418 2240
2019-10-19 10:44:08 GMT 46.296616 10.615941 28,700 295 423 1984
2019-10-19 10:44:05 GMT 46.293316 10.626183 28,575 295 424 1664
2019-10-19 10:44:01 GMT 46.291580 10.631617 27,050 295 425 1600
2019-10-19 10:43:58 GMT 46.289124 10.639297 28,450 295 426 1408
2019-10-19 10:43:54 GMT 46.284611 10.653236 28,325 295 426 1280
2019-10-19 10:43:49 GMT 46.280045 10.667457 28,225 296 428 1152
2019-10-19 10:43:46 GMT 46.278465 10.672394 28,175 296 428 1152
2019-10-19 10:43:43 GMT 46.275467 10.681658 28,100 296 428 1152
2019-10-19 10:43:35 GMT 46.269333 10.700550 27,925 296 429 1152
2019-10-19 10:43:32 GMT 46.266724 10.708588 27,925 296 429 1216
2019-10-19 10:43:29 GMT 46.264545 10.715309 27,850 296 429 1344
2019-10-19 10:43:24 GMT 46.260262 10.728561 27,750 296 430 1344
2019-10-19 10:43:21 GMT 46.257328 10.737694 27,675 295 431 1344
2019-10-19 10:43:15 GMT 46.251511 10.755615 27,500 296 432 1344
2019-10-19 10:43:11 GMT 46.248390 10.765297 27,425 296 432 1344
2019-10-19 10:43:06 GMT 46.245552 10.774155 27,350 296 432 1280
2019-10-19 10:43:03 GMT 46.242851 10.782532 27,250 296 432 1280
2019-10-19 10:43:00 GMT 46.238850 10.794823 27,175 295 433 1216
2019-10-19 10:42:56 GMT 46.237171 10.800041 27,150 295 433 1216
2019-10-19 10:42:51 GMT 46.231842 10.816509 27,025 296 433 896
2019-10-19 10:42:44 GMT 46.226326 10.833549 26,925 296 433 704
2019-10-19 10:42:40 GMT 46.222916 10.843975 26,725 296 432 832
2019-10-19 10:42:37 GMT 46.220879 10.850304 26,725 296 432 832
2019-10-19 10:42:33 GMT 46.216553 10.863603 26,775 296 432 832
2019-10-19 10:42:29 GMT 46.211746 10.878475 26,700 296 432 768
2019-10-19 10:42:22 GMT 46.208076 10.889717 26,625 296 432 768
2019-10-19 10:42:19 GMT 46.204960 10.899330 26,600 296 431 704
2019-10-19 10:42:15 GMT 46.201141 10.911072 26,500 296 431 768
2019-10-19 10:42:10 GMT 46.196579 10.925079 26,475 296 430 832
2019-10-19 10:42:07 GMT 46.194996 10.930023 26,450 296 430 832
2019-10-19 10:42:01 GMT 46.189781 10.946091 26,350 296 429 960
2019-10-19 10:41:58 GMT 46.186802 10.955154 26,150 296 429 896
2019-10-19 10:41:53 GMT 46.183456 10.965494 26,250 296 428 896
2019-10-19 10:41:50 GMT 46.180424 10.974792 25,950 296 427 1024
2019-10-19 10:41:47 GMT 46.177631 10.983307 26,150 296 428 960
2019-10-19 10:41:44 GMT 46.175117 10.991066 26,075 296 427 1024
2019-10-19 10:41:41 GMT 46.169724 11.007564 26,025 296 427 1024
2019-10-19 10:41:37 GMT 46.169724 11.007564 25,950 296 427 1024
2019-10-19 10:41:34 GMT 46.166611 11.017076 25,875 296 427 1024
2019-10-19 10:41:30 GMT 46.161438 11.033020 25,725 296 426 1088
2019-10-19 10:41:27 GMT 46.161438 11.033020 25,775 296 426 1088
2019-10-19 10:41:23 GMT 46.157570 11.044830 25,725 296 426 1088
2019-10-19 10:41:19 GMT 46.155148 11.052246 25,675 296 426 1088
2019-10-19 10:41:16 GMT 46.152538 11.060211 25,500 296 424 960
2019-10-19 10:41:10 GMT 46.147514 11.075592 25,500 296 425 1088
2019-10-19 10:41:07 GMT 46.145096 11.082994 25,400 296 425 1024
2019-10-19 10:41:03 GMT 46.140747 11.096325 25,025 296 421 832
2019-10-19 10:40:58 GMT 46.136993 11.107796 25,250 296 423 896
2019-10-19 10:40:54 GMT 46.134151 11.116447 25,200 296 423 896
2019-10-19 10:40:51 GMT 46.131729 11.123863 25,200 296 423 896
2019-10-19 10:40:47 GMT 46.127655 11.136318 25,150 296 422 832
2019-10-19 10:40:43 GMT 46.124794 11.144943 25,100 296 422 832
2019-10-19 10:40:40 GMT 46.121796 11.154071 25,050 296 421 832
2019-10-19 10:40:35 GMT 46.117718 11.166504 24,975 296 421 960
2019-10-19 10:40:31 GMT 46.113808 11.178383 24,875 296 420 1024
2019-10-19 10:40:27 GMT 46.110809 11.187432 24,825 296 420 1024
2019-10-19 10:40:23 GMT 46.108315 11.195000 24,775 296 420 1088
2019-10-19 10:40:20 GMT 46.105942 11.202347 24,550 296 419 1152
2019-10-19 10:40:16 GMT 46.102158 11.213692 24,625 296 419 1152
2019-10-19 10:40:10 GMT 46.097191 11.228783 24,500 296 419 1216
2019-10-19 10:40:07 GMT 46.093781 11.239081 24,425 296 419 1216
2019-10-19 10:40:00 GMT 46.088623 11.254669 24,300 296 418 1280
2019-10-19 10:39:55 GMT 46.084435 11.267235 24,200 296 418 1344
2019-10-19 10:39:50 GMT 46.080460 11.279342 24,075 296 418 1472
2019-10-19 10:39:47 GMT 46.077896 11.287112 24,000 296 419 1472
2019-10-19 10:39:44 GMT 46.075916 11.293121 23,950 296 419 1472
2019-10-19 10:39:39 GMT 46.071075 11.307745 23,800 296 419 1536
2019-10-19 10:39:35 GMT 46.068279 11.316330 23,400 296 420 1472
2019-10-19 10:39:32 GMT 46.065628 11.324364 23,650 296 420 1536
2019-10-19 10:39:29 GMT 46.063484 11.330956 23,575 296 420 1536
2019-10-19 10:39:26 GMT 46.059669 11.342491 23,425 296 420 1472
2019-10-19 10:39:19 GMT 46.055283 11.355643 23,300 296 420 1280
2019-10-19 10:39:16 GMT 46.051102 11.367897 23,250 297 420 1280
2019-10-19 10:39:13 GMT 46.047565 11.378128 23,150 297 420 1216
2019-10-19 10:39:06 GMT 46.044067 11.388133 23,075 298 419 1216
2019-10-19 10:39:02 GMT 46.035927 11.410950 22,925 298 419 1216
2019-10-19 10:38:58 GMT 46.035927 11.410950 22,750 298 418 1152
2019-10-19 10:38:54 GMT 46.032856 11.419601 22,825 298 419 1216
2019-10-19 10:38:51 GMT 46.027733 11.433952 22,750 298 418 1216
2019-10-19 10:38:48 GMT 46.027733 11.433952 22,700 298 418 1152
2019-10-19 10:38:44 GMT 46.023823 11.444801 22,625 298 418 1152
2019-10-19 10:38:41 GMT 46.020565 11.453934 22,550 298 417 1152
2019-10-19 10:38:37 GMT 46.018250 11.460348 22,475 298 416 1088
2019-10-19 10:38:34 GMT 46.014450 11.470932 22,425 298 416 1088
2019-10-19 10:38:30 GMT 46.008881 11.486343 22,325 298 415 1088
2019-10-19 10:38:27 GMT 46.008881 11.486343 22,300 298 415 1088
2019-10-19 10:38:22 GMT 46.001724 11.506102 22,200 298 413 1088
2019-10-19 10:38:19 GMT 46.001724 11.506102 22,150 298 413 1088
2019-10-19 10:38:16 GMT 45.999527 11.512198 22,125 298 413 1024
2019-10-19 10:38:13 GMT 45.996414 11.520706 22,050 298 412 1024
2019-10-19 10:38:09 GMT 45.992477 11.531625 21,975 298 411 1152
2019-10-19 10:38:05 GMT 45.989609 11.539627 21,950 298 411 1152
2019-10-19 10:38:02 GMT 45.987328 11.545876 21,850 298 410 1216
2019-10-19 10:37:59 GMT 45.983601 11.556244 21,775 297 408 1216
2019-10-19 10:37:55 GMT 45.981136 11.563316 21,725 297 408 1216
2019-10-19 10:37:52 GMT 45.978241 11.571484 21,600 297 407 1472
2019-10-19 10:37:49 GMT 45.976200 11.577324 21,575 297 407 1536
2019-10-19 10:37:45 GMT 45.972755 11.587212 21,475 297 406 1728
2019-10-19 10:37:42 GMT 45.969955 11.595466 21,375 296 406 1792
2019-10-19 10:37:38 GMT 45.967308 11.603279 21,275 296 407 1920
2019-10-19 10:37:35 GMT 45.964844 11.610832 21,175 296 407 2112
2019-10-19 10:37:31 GMT 45.960342 11.624205 20,950 296 407 2496
2019-10-19 10:37:28 GMT 45.958466 11.629852 20,650 300 413 2304
2019-10-19 10:37:24 GMT 45.955811 11.637337 20,725 299 412 2368
2019-10-19 10:37:21 GMT 45.952240 11.646446 20,550 302 416 1920
2019-10-19 10:37:18 GMT 45.948689 11.654366 20,475 305 417 1728
2019-10-19 10:37:14 GMT 45.944687 11.662456 20,375 308 419 1600
2019-10-19 10:37:10 GMT 45.939983 11.670982 20,300 310 420 1536
2019-10-19 10:37:07 GMT 45.936035 11.677462 20,200 314 422 1472
2019-10-19 10:37:04 GMT 45.930542 11.685501 20,100 318 424 1472
2019-10-19 10:36:59 GMT 45.925186 11.692468 20,050 319 425 1408
2019-10-19 10:36:55 GMT 45.911087 11.707473 19,850 327 428 1472
2019-10-19 10:36:51 GMT 45.911087 11.707473 19,800 328 429 1472
2019-10-19 10:36:47 GMT 45.906372 11.711700 19,725 330 431 1472
2019-10-19 10:36:43 GMT 45.899204 11.717331 19,325 334 431 1664
2019-10-19 10:36:40 GMT 45.893337 11.721588 19,550 335 432 1856
2019-10-19 10:36:37 GMT 45.887604 11.725628 19,475 335 432 1856
2019-10-19 10:36:34 GMT 45.880398 11.730652 19,175 335 432 1664
2019-10-19 10:36:31 GMT 45.875927 11.733742 19,200 335 431 1472
2019-10-19 10:36:28 GMT 45.871765 11.736614 19,100 335 432 1600
2019-10-19 10:36:24 GMT 45.865128 11.741236 19,075 335 432 1600
2019-10-19 10:36:20 GMT 45.857025 11.746788 18,875 335 430 1472
2019-10-19 10:36:17 GMT 45.851807 11.750414 18,800 335 430 1408
2019-10-19 10:36:14 GMT 45.846458 11.754135 18,800 335 430 1408
2019-10-19 10:36:08 GMT 45.836079 11.761345 18,700 335 429 1280
2019-10-19 10:36:05 GMT 45.831757 11.764281 18,625 335 428 1152
2019-10-19 10:36:02 GMT 45.818436 11.773567 18,525 334 423 512
2019-10-19 10:35:59 GMT 45.818436 11.773567 18,500 335 424 576
2019-10-19 10:35:55 GMT 45.812988 11.777344 18,500 335 423 512
2019-10-19 10:35:52 GMT 45.807541 11.781120 18,375 335 420 576
2019-10-19 10:35:48 GMT 45.800697 11.785858 18,400 335 418 960
2019-10-19 10:35:45 GMT 45.794971 11.789909 18,375 334 417 1344
2019-10-19 10:35:37 GMT 45.781147 11.799522 18,150 334 415 1664
2019-10-19 10:35:34 GMT 45.771652 11.806149 18,000 334 415 1856
2019-10-19 10:35:31 GMT 45.771652 11.806149 18,000 334 415 1856
2019-10-19 10:35:27 GMT 45.763550 11.811777 17,850 334 415 2048
2019-10-19 10:35:24 GMT 45.759247 11.814791 17,775 334 415 2112
2019-10-19 10:35:20 GMT 45.752838 11.819279 17,650 334 415 2112
2019-10-19 10:35:16 GMT 45.744919 11.824840 17,475 334 415 1920
2019-10-19 10:35:13 GMT 45.738739 11.829127 17,400 334 415 1856
2019-10-19 10:35:09 GMT 45.733059 11.833168 17,275 334 414 1664
2019-10-19 10:35:06 GMT 45.727707 11.836898 17,175 334 413 1600
2019-10-19 10:35:03 GMT 45.722538 11.840515 16,775 334 413 1536
2019-10-19 10:34:58 GMT 45.712784 11.847348 16,950 334 412 1536
2019-10-19 10:34:55 GMT 45.710060 11.849304 16,875 334 411 1536
2019-10-19 10:34:52 GMT 45.704056 11.853493 16,850 334 411 1536
2019-10-19 10:34:48 GMT 45.696747 11.858574 16,725 334 410 1536
2019-10-19 10:34:45 GMT 45.691635 11.862153 16,650 335 409 1536
2019-10-19 10:34:42 GMT 45.686504 11.865646 16,600 335 408 1536
2019-10-19 10:34:38 GMT 45.676483 11.872536 16,425 335 407 1664
2019-10-19 10:34:34 GMT 45.673939 11.874298 16,350 335 407 1664
2019-10-19 10:34:31 GMT 45.668304 11.878075 16,250 335 407 1664
2019-10-19 10:34:27 GMT 45.660110 11.883499 16,200 336 406 1728
2019-10-19 10:34:24 GMT 45.655457 11.886520 16,075 336 405 1664
2019-10-19 10:34:21 GMT 45.651173 11.889267 16,000 336 406 1600
2019-10-19 10:34:17 GMT 45.645214 11.893044 15,925 337 406 1536
2019-10-19 10:34:13 GMT 45.637486 11.897919 15,750 337 403 1664
2019-10-19 10:34:10 GMT 45.632832 11.900803 15,750 337 403 1664
2019-10-19 10:34:05 GMT 45.622311 11.907532 15,550 335 402 1664
2019-10-19 10:34:00 GMT 45.616013 11.912127 15,450 332 398 1600
2019-10-19 10:33:57 GMT 45.610348 11.916870 15,350 327 395 1600
2019-10-19 10:33:54 GMT 45.606529 11.920509 15,300 325 393 1664
2019-10-19 10:33:50 GMT 45.600449 11.927066 15,150 320 389 1728
2019-10-19 10:33:47 GMT 45.591446 11.939049 15,025 316 386 1856
2019-10-19 10:33:44 GMT 45.591446 11.939049 14,950 312 383 1920
2019-10-19 10:33:39 GMT 45.586441 11.947230 14,800 309 381 1920
2019-10-19 10:33:35 GMT 45.581955 11.955872 14,650 303 377 2048
2019-10-19 10:33:32 GMT 45.579109 11.962120 14,550 300 376 2048
2019-10-19 10:33:28 GMT 45.576553 11.968600 14,450 298 375 2112
2019-10-19 10:33:25 GMT 45.573803 11.976608 14,300 293 372 2176
2019-10-19 10:33:22 GMT 45.571522 11.984573 14,200 291 372 2176
2019-10-19 10:33:18 GMT 45.569473 11.992607 14,075 288 371 2048
2019-10-19 10:33:14 GMT 45.567333 12.002151 13,925 288 370 1920
2019-10-19 10:33:11 GMT 45.565842 12.009195 13,425 288 362 2368
2019-10-19 10:33:07 GMT 45.563889 12.018013 13,725 288 369 1792
2019-10-19 10:33:02 GMT 45.558350 12.043556 13,475 288 367 1792
2019-10-19 10:32:57 GMT 45.558350 12.043556 13,400 288 367 1792
2019-10-19 10:32:53 GMT 45.556904 12.050217 13,200 288 365 1792
2019-10-19 10:32:50 GMT 45.554951 12.059212 13,200 288 365 1792
2019-10-19 10:32:46 GMT 45.552933 12.068414 13,075 288 364 1920
2019-10-19 10:32:43 GMT 45.551651 12.074109 13,000 288 364 1920
2019-10-19 10:32:38 GMT 45.549362 12.084618 12,825 288 363 1984
2019-10-19 10:32:35 GMT 45.547409 12.093544 12,700 288 363 2048
2019-10-19 10:32:32 GMT 45.546524 12.097458 12,400 288 362 2176
2019-10-19 10:32:26 GMT 45.543449 12.111556 12,425 288 362 2240
2019-10-19 10:32:22 GMT 45.541264 12.121336 11,925 288 360 1600
2019-10-19 10:32:18 GMT 45.538742 12.132961 12,100 288 361 1600
2019-10-19 10:32:13 GMT 45.536839 12.141567 11,975 288 360 1600
2019-10-19 10:32:10 GMT 45.534794 12.150812 11,875 288 358 1664
2019-10-19 10:32:07 GMT 45.533844 12.155326 11,800 288 356 2048
2019-10-19 10:32:04 GMT 45.532326 12.162066 11,775 288 357 1920
2019-10-19 10:32:01 GMT 45.530777 12.169255 11,625 288 356 2112
2019-10-19 10:31:52 GMT 45.526199 12.190247 11,350 288 352 1024
2019-10-19 10:31:49 GMT 45.525284 12.194432 11,325 288 351 960
2019-10-19 10:31:43 GMT 45.522263 12.208492 11,225 288 347 896
2019-10-19 10:31:39 GMT 45.520615 12.216143 11,175 288 343 768
2019-10-19 10:31:33 GMT 45.517456 12.230661 11,075 288 336 704
2019-10-19 10:31:30 GMT 45.515625 12.239162 11,050 288 330 640
2019-10-19 10:31:22 GMT 45.512589 12.253038 10,975 288 325 704
2019-10-19 10:31:18 GMT 45.510773 12.261412 10,925 287 322 704
2019-10-19 10:31:14 GMT 45.508537 12.271862 10,875 288 316 768
2019-10-19 10:31:10 GMT 45.506973 12.279053 10,825 288 313 832
2019-10-19 10:31:01 GMT 45.501709 12.303445 10,675 288 304 960
2019-10-19 10:30:58 GMT 45.501709 12.303445 10,625 287 301 960
2019-10-19 10:30:49 GMT 45.498856 12.316746 10,525 287 294 832
2019-10-19 10:30:46 GMT 45.497589 12.322671 10,500 287 291 896
2019-10-19 10:30:40 GMT 45.494896 12.335168 10,375 288 285 1344
2019-10-19 10:30:36 GMT 45.493546 12.341465 10,225 288 283 2240
2019-10-19 10:30:28 GMT 45.490707 12.354662 10,000 288 282 2240
2019-10-19 10:30:25 GMT 45.489449 12.360490 9,825 288 282 1984
2019-10-19 10:30:17 GMT 45.486099 12.375831 9,575 288 278 1856
2019-10-19 10:30:14 GMT 45.485260 12.379716 9,500 288 277 1856
2019-10-19 10:30:09 GMT 45.483166 12.389430 9,300 288 275 2112
2019-10-19 10:30:06 GMT 45.482208 12.393624 9,225 288 275 2304
2019-10-19 10:30:03 GMT 45.481064 12.398791 9,100 288 274 2624
2019-10-19 10:29:58 GMT 45.476929 12.417230 8,750 288 275 3264
2019-10-19 10:29:52 GMT 45.476929 12.417230 8,550 289 275 3072
2019-10-19 10:29:47 GMT 45.474834 12.426341 8,300 289 276 2560
2019-10-19 10:29:42 GMT 45.472923 12.434447 8,125 289 273 1856
2019-10-19 10:29:37 GMT 45.470737 12.443557 7,975 290 267 1216
2019-10-19 10:29:31 GMT 45.468502 12.452601 7,875 290 260 1024
2019-10-19 10:29:27 GMT 45.466232 12.461308 7,775 291 254 1088
2019-10-19 10:29:24 GMT 45.465614 12.463654 7,750 290 248 1152
2019-10-19 10:29:21 GMT 45.464081 12.469817 7,675 287 243 1216
2019-10-19 10:29:16 GMT 45.462524 12.478115 7,625 284 241 1152
2019-10-19 10:29:11 GMT 45.461975 12.485897 7,425 268 229 1664
2019-10-19 10:29:08 GMT 45.462067 12.489624 7,350 264 226 1792
2019-10-19 10:29:05 GMT 45.462479 12.493940 7,300 258 223 2048
2019-10-19 10:28:59 GMT 45.464359 12.502106 6,975 99 210 0
2019-10-19 10:28:55 GMT 45.467010 12.508403 6,850 228 220 2624
2019-10-19 10:28:47 GMT 45.472691 12.515772 6,525 213 219 2496
2019-10-19 10:28:44 GMT 45.475765 12.518318 6,375 207 218 2432
2019-10-19 10:28:38 GMT 45.480927 12.521929 6,150 206 216 2240
2019-10-19 10:28:35 GMT 45.482655 12.523074 6,075 206 215 2240
2019-10-19 10:28:32 GMT 45.485550 12.524937 6,000 205 214 2240
2019-10-19 10:28:26 GMT 45.491043 12.527880 5,775 196 211 2304
2019-10-19 10:28:23 GMT 45.494663 12.529170 5,600 191 209 2560
2019-10-19 10:28:18 GMT 45.499039 12.530108 5,350 184 209 3008
2019-10-19 10:28:15 GMT 45.501369 12.530376 5,250 178 210 3136
2019-10-19 10:28:12 GMT 45.505325 12.530309 5,050 174 211 3136
2019-10-19 10:28:04 GMT 45.511459 12.528861 4,725 160 216 2944
2019-10-19 10:28:01 GMT 45.515148 12.526893 4,525 152 218 2624
2019-10-19 10:27:56 GMT 45.519470 12.522845 4,325 133 222 2112
2019-10-19 10:27:53 GMT 45.520824 12.520931 4,275 130 222 1984
2019-10-19 10:27:50 GMT 45.523544 12.515651 4,125 118 223 1600
2019-10-19 10:27:44 GMT 45.525761 12.507533 3,975 101 217 1472
2019-10-19 10:27:41 GMT 45.526505 12.503044 3,925 100 215 1600
2019-10-19 10:27:35 GMT 45.527390 12.495407 3,775 98 211 1472
2019-10-19 10:27:32 GMT 45.527763 12.491991 3,700 99 208 1344
2019-10-19 10:27:29 GMT 45.528416 12.486230 3,625 99 204 1088
2019-10-19 10:27:25 GMT 45.528927 12.481876 3,550 99 198 896
2019-10-19 10:27:22 GMT 45.529312 12.478768 3,550 99 198 896
2019-10-19 10:27:17 GMT 45.529999 12.472631 3,450 99 190 832
2019-10-19 10:27:14 GMT 45.531006 12.464512 3,375 99 185 832
2019-10-19 10:27:07 GMT 45.531555 12.460000 3,350 99 180 960
2019-10-19 10:27:04 GMT 45.532059 12.455488 3,225 99 176 1408
2019-10-19 10:27:01 GMT 45.532326 12.453338 3,125 99 174 1728
2019-10-19 10:26:57 GMT 45.532928 12.447912 3,025 99 174 1792
2019-10-19 10:26:52 GMT 45.533443 12.443490 2,925 99 172 1856
2019-10-19 10:26:49 GMT 45.533859 12.439806 2,825 99 172 1856
2019-10-19 10:26:46 GMT 45.534279 12.436322 2,725 98 171 1920
2019-10-19 10:26:43 GMT 45.534576 12.433384 2,625 98 171 1920
2019-10-19 10:26:40 GMT 45.534931 12.429824 2,550 97 172 1792
2019-10-19 10:26:36 GMT 45.535862 12.420379 2,375 97 171 1792
2019-10-19 10:26:32 GMT 45.535862 12.420379 2,300 97 171 1792
2019-10-19 10:26:29 GMT 45.536041 12.418147 2,225 96 170 1792
2019-10-19 10:26:25 GMT 45.536560 12.411603 2,050 96 168 1856
2019-10-19 10:26:22 GMT 45.536655 12.410062 2,000 62 170 2176
2019-10-19 10:26:19 GMT 45.536819 12.406311 1,900 89 170 1792
2019-10-19 10:26:14 GMT 45.536373 12.399746 1,675 67 170 2112
2019-10-19 10:26:08 GMT 45.535027 12.394521 1,575 62 170 2176
2019-10-19 10:26:05 GMT 45.533386 12.390943 1,450 51 170 1920
2019-10-19 10:26:01 GMT 45.531765 12.388157 1,350 47 169 2048
2019-10-19 10:25:58 GMT 45.530548 12.386300 1,250 45 169 2112
2019-10-19 10:25:55 GMT 45.528076 12.382769 1,025 44 167 2624
2019-10-19 10:25:51 GMT 45.526337 12.380284 950 44 169 2816
2019-10-19 10:25:48 GMT 45.524506 12.377706 800 44 169 2752
2019-10-19 10:25:41 GMT 45.520641 12.372213 500 43 175 2304
2019-10-19 10:25:38 GMT 45.518639 12.369467 325 43 174 2304
2019-10-19 10:25:26 GMT 45.512146 12.360992 -50 42 176 1280
2019-10-19 10:25:15 GMT 45.505737 12.352687 -100 42 151 -64
2019-10-19 10:25:03 GMT 45.500111 12.345417 -75 42 110 0
2019-10-19 10:24:52 GMT 45.496868 12.341260 0 42 70
2019-10-19 10:24:43 GMT 45.495224 12.339154 0 42 32
2019-10-19 10:24:29 GMT 45.494652 12.338383 0 45 0
2019-10-19 10:24:10 GMT 45.494659 12.338382 0 45 0
2019-10-19 10:24:03 GMT 45.494652 12.338383 0 45 0
2019-10-19 10:24:00 GMT 45.494659 12.338399 0 45 0
2019-10-19 10:23:57 GMT 45.494640 12.338367 0 45 5
2019-10-19 10:23:49 GMT 45.494453 12.338166 0 64 11
2019-10-19 10:23:38 GMT 45.494293 12.337516 0 118 11
2019-10-19 10:23:27 GMT 45.494640 12.336809 0 132 12
2019-10-19 10:23:16 GMT 45.494968 12.336273 0 151 9
2019-10-19 10:23:06 GMT 45.495270 12.336005 0 194 7
2019-10-19 10:22:55 GMT 45.495548 12.336089 0 219 6
2019-10-19 10:22:52 GMT 45.495628 12.336189 0 222 9
2019-10-19 10:22:44 GMT 45.495865 12.336474 0 222 11
2019-10-19 10:22:34 GMT 45.496273 12.336993 0 222 12
2019-10-19 10:22:23 GMT 45.496723 12.337596 0 222 13
2019-10-19 10:22:12 GMT 45.497166 12.338166 0 222 13
2019-10-19 10:22:01 GMT 45.497665 12.338785 0 222 14
2019-10-19 10:21:51 GMT 45.498150 12.339412 0 222 14
2019-10-19 10:21:40 GMT 45.498646 12.340041 0 222 12
2019-10-19 10:21:29 GMT 45.499065 12.340589 0 222 12
2019-10-19 10:21:18 GMT 45.499523 12.341161 0 222 15
2019-10-19 10:21:08 GMT 45.500042 12.341850 0 222 15
2019-10-19 10:20:57 GMT 45.500610 12.342584 0 222 17
2019-10-19 10:20:46 GMT 45.501274 12.343408 0 202 19
2019-10-19 10:20:36 GMT 45.502148 12.343625 0 177 18
2019-10-19 10:20:24 GMT 45.503025 12.343548 0 177 16
2019-10-19 10:20:13 GMT 45.503815 12.343499 0 177 16
2019-10-19 10:20:03 GMT 45.504543 12.343458 0 177 15
2019-10-19 10:19:52 GMT 45.505199 12.343467 0 208 13
2019-10-19 10:19:42 GMT 45.505672 12.343910 0 233 11
2019-10-19 10:19:30 GMT 45.505955 12.344562 0 267 11
2019-10-19 10:19:20 GMT 45.505989 12.345267 0 264 11
2019-10-19 10:19:10 GMT 45.506023 12.345952 0 241 11
2019-10-19 10:18:59 GMT 45.506252 12.346524 0 194 11
2019-10-19 10:18:48 GMT 45.506721 12.346623 0 146 10
2019-10-19 10:18:37 GMT 45.507057 12.346255 0 132 8
2019-10-19 10:18:27 GMT 45.507317 12.345854 0 132 9
2019-10-19 10:18:16 GMT 45.507591 12.345428 0 132 8
2019-10-19 10:18:02 GMT 45.507843 12.345020 0 132 4
2019-10-19 10:17:54 GMT 45.507935 12.344889 0 132 4
2019-10-19 10:17:44 GMT 45.508038 12.344731 0 132 3
2019-10-19 10:17:28 GMT 45.508198 12.344463 0 132 5
2019-10-19 10:17:20 GMT 45.508305 12.344295 0 132 4
2019-10-19 10:14:36 GMT 45.508427 12.344104 0 132 0
2019-10-19 10:14:28 GMT 45.508430 12.344094 0 132 0
2019-10-19 10:14:16 GMT 45.508484 12.344022 0 132 2
2019-10-19 10:14:00 GMT 45.508553 12.343908 0 135 2
2019-10-19 10:13:56 GMT 45.508572 12.343877 0 135 0
2019-10-19 10:13:46 GMT 45.508575 12.343859 0 135 0
2019-10-19 10:13:33 GMT 45.508564 12.343908 0 132 2
2019-10-19 10:13:21 GMT 45.508564 12.344055 0 118 2
2019-10-19 10:13:14 GMT 45.508549 12.344128 0 115 3
2019-10-19 10:12:52 GMT 45.508564 12.344448 0 95 2
2019-10-19 10:12:41 GMT 45.508610 12.344578 0 81 3
2019-10-19 10:12:30 GMT 45.508690 12.344676 0 67 2
2019-10-19 10:12:16 GMT 45.508793 12.344747 0 50 2
2019-10-19 10:12:10 GMT 45.508839 12.344798 0 45 2
2019-10-19 10:11:59 GMT 45.508907 12.344848 0 42 3

Making use of Plane Finder data

You are free to use the raw flight data, aircraft information and images provided in this report for your own purposes provided the data is correctly attributed to Plane Finder. We ask that you please credit Plane Finder and link to planefinder.net in close proximity to the content.

Optionally one of the following logos (no smaller then 150x24px) can be used and must link to planefinder.net

Embedding the Plane Finder map

You are welcome to embed the Plane Finder playback map on your website to offer visitors a more interactive experience. We suggest using the following HTML code:

<iframe src="//planefinder.net/data/report/TS571-C-GUBC-7700-squawk-2019-10-19/map" width="800" height="600" seamless="seamless"></iframe>

Where our data comes from

Plane Finder has a global network of data feeds and antenna radars that receive data broadcast directly from aircraft. The primary technologies used are ADS-B and MLAT. We also show feeds from the FAA and a FLARM glider feed.

Click here to find out more about the Plane Finder network.

How we collect our data